Wetterdaten: Dienstag, 05.05.2020
Datum Zeit Temp. Aussen Temp. o. S. Temp +5cm Feuchte Auss Luftdruck Regen Sonnenschein Regendauer Solar Windben Empfang
05.05.2020 00:00 9,7 C 8,3 C 8,3 C 75 % 1021,2 hPa 0,0 l/m 0 min 0 min 0 W/m 3,2 km/h (1 Bft) 97,87 %
05.05.2020 00:02 9,6 C 8,3 C 7,8 C 75 % 1021,3 hPa 0,0 l/m 0 min 0 min 0 W/m 0,0 km/h (0 Bft) 94,87 %
05.05.2020 00:04 9,6 C 8,3 C 7,8 C 75 % 1021,4 hPa 0,0 l/m 0 min 0 min 0 W/m 3,2 km/h (1 Bft) 95,74 %
05.05.2020 00:08 9,6 C 7,8 C 7,8 C 75 % 1021,5 hPa 0,0 l/m 0 min 0 min 0 W/m 6,4 km/h (2 Bft) 94,68 %
05.05.2020 00:10 9,5 C 7,8 C 7,8 C 75 % 1021,5 hPa 0,0 l/m 0 min 0 min 0 W/m 0,0 km/h (0 Bft) 54,55 %
05.05.2020 00:12 9,5 C 7,8 C 7,2 C 76 % 1021,5 hPa 0,0 l/m 0 min 0 min 0 W/m 3,2 km/h (1 Bft) 95,74 %
05.05.2020 00:14 9,4 C 7,8 C 7,2 C 76 % 1021,5 hPa 0,0 l/m 0 min 0 min 0 W/m 0,0 km/h (0 Bft) 95,65 %
05.05.2020 00:16 9,4 C 7,8 C 7,2 C 76 % 1021,6 hPa 0,0 l/m 0 min 0 min 0 W/m 3,2 km/h (1 Bft) 95,74 %
05.05.2020 00:18 9,4 C 7,8 C 7,2 C 76 % 1021,6 hPa 0,0 l/m 0 min 0 min 0 W/m 0,0 km/h (0 Bft) 95,74 %
05.05.2020 00:20 9,3 C 7,8 C 7,2 C 76 % 1021,6 hPa 0,0 l/m 0 min 0 min 0 W/m 3,2 km/h (1 Bft) 97,87 %
05.05.2020 00:22 9,3 C 7,8 C 7,2 C 76 % 1021,6 hPa 0,0 l/m 0 min 0 min 0 W/m 3,2 km/h (1 Bft) 95,74 %
05.05.2020 00:24 9,3 C 7,8 C 7,2 C 76 % 1021,7 hPa 0,0 l/m 0 min 0 min 0 W/m 0,0 km/h (0 Bft) 91,30 %
05.05.2020 00:26 9,3 C 7,8 C 7,2 C 76 % 1021,7 hPa 0,0 l/m 0 min 0 min 0 W/m 6,4 km/h (2 Bft) 93,62 %
05.05.2020 00:28 9,2 C 7,8 C 7,2 C 77 % 1021,7 hPa 0,0 l/m 0 min 0 min 0 W/m 3,2 km/h (1 Bft) 95,74 %
05.05.2020 00:30 9,2 C 7,8 C 7,2 C 77 % 1021,7 hPa 0,0 l/m 0 min 0 min 0 W/m 0,0 km/h (0 Bft) 95,74 %
05.05.2020 00:32 9,1 C 7,8 C 7,2 C 77 % 1021,7 hPa 0,0 l/m 0 min 0 min 0 W/m 0,0 km/h (0 Bft) 95,74 %
05.05.2020 00:34 9,1 C 7,8 C 7,2 C 77 % 1021,8 hPa 0,0 l/m 0 min 0 min 0 W/m 3,2 km/h (1 Bft) 93,62 %
05.05.2020 00:36 9,1 C 7,8 C 7,2 C 77 % 1021,8 hPa 0,0 l/m 0 min 0 min 0 W/m 3,2 km/h (1 Bft) 93,48 %
05.05.2020 00:38 9,1 C 7,2 C 7,2 C 77 % 1021,8 hPa 0,0 l/m 0 min 0 min 0 W/m 0,0 km/h (0 Bft) 93,62 %
05.05.2020 00:40 9,0 C 7,2 C 7,2 C 77 % 1021,8 hPa 0,0 l/m 0 min 0 min 0 W/m 6,4 km/h (2 Bft) 95,74 %
05.05.2020 00:42 8,9 C 7,2 C 7,2 C 77 % 1021,8 hPa 0,0 l/m 0 min 0 min 0 W/m 3,2 km/h (1 Bft) 95,74 %
05.05.2020 00:44 8,9 C 7,8 C 7,2 C 77 % 1021,8 hPa 0,0 l/m 0 min 0 min 0 W/m 3,2 km/h (1 Bft) 93,62 %
05.05.2020 00:46 8,8 C 7,8 C 7,2 C 77 % 1021,9 hPa 0,0 l/m 0 min 0 min 0 W/m 3,2 km/h (1 Bft) 95,74 %
05.05.2020 00:48 8,8 C 7,2 C 7,2 C 77 % 1021,9 hPa 0,0 l/m 0 min 0 min 0 W/m 0,0 km/h (0 Bft) 95,65 %
05.05.2020 00:50 8,8 C 7,2 C 7,2 C 78 % 1021,8 hPa 0,0 l/m 0 min 0 min 0 W/m 0,0 km/h (0 Bft) 95,74 %
05.05.2020 00:52 8,8 C 7,2 C 7,2 C 77 % 1021,9 hPa 0,0 l/m 0 min 0 min 0 W/m 0,0 km/h (0 Bft) 97,83 %
05.05.2020 00:54 8,8 C 7,2 C 7,2 C 77 % 1021,9 hPa 0,0 l/m 0 min 0 min 0 W/m 3,2 km/h (1 Bft) 95,74 %
05.05.2020 00:56 8,7 C 7,2 C 7,2 C 78 % 1021,9 hPa 0,0 l/m 0 min 0 min 0 W/m 0,0 km/h (0 Bft) 95,74 %
05.05.2020 00:58 8,7 C 7,2 C 7,2 C 78 % 1021,9 hPa 0,0 l/m 0 min 0 min 0 W/m 0,0 km/h (0 Bft) 95,74 %
05.05.2020 01:00 8,7 C 7,2 C 6,7 C 78 % 1022,0 hPa 0,0 l/m 0 min 0 min 0 W/m 0,0 km/h (0 Bft) 95,65 %
05.05.2020 01:02 8,7 C 7,2 C 6,7 C 78 % 1022,0 hPa 0,0 l/m 0 min 0 min 0 W/m 0,0 km/h (0 Bft) 95,74 %
05.05.2020 01:04 8,6 C 7,2 C 6,7 C 78 % 1022,0 hPa 0,0 l/m 0 min 0 min 0 W/m 0,0 km/h (0 Bft) 93,62 %
05.05.2020 01:06 8,6 C 7,2 C 6,7 C 78 % 1022,0 hPa 0,0 l/m 0 min 0 min 0 W/m 3,2 km/h (1 Bft) 91,49 %
05.05.2020 01:08 8,6 C 7,2 C 6,7 C 78 % 1022,0 hPa 0,0 l/m 0 min 0 min 0 W/m 0,0 km/h (0 Bft) 93,62 %
05.05.2020 01:10 8,6 C 7,2 C 6,7 C 78 % 1022,0 hPa 0,0 l/m 0 min 0 min 0 W/m 3,2 km/h (1 Bft) 93,62 %
05.05.2020 01:12 8,5 C 7,2 C 6,7 C 78 % 1022,1 hPa 0,0 l/m 0 min 0 min 0 W/m 0,0 km/h (0 Bft) 93,48 %
05.05.2020 01:14 8,4 C 7,2 C 6,7 C 78 % 1022,0 hPa 0,0 l/m 0 min 0 min 0 W/m 3,2 km/h (1 Bft) 93,62 %
05.05.2020 01:16 8,4 C 6,7 C 6,7 C 79 % 1022,0 hPa 0,0 l/m 0 min 0 min 0 W/m 3,2 km/h (1 Bft) 95,74 %
05.05.2020 01:18 8,4 C 6,7 C 6,7 C 79 % 1022,0 hPa 0,0 l/m 0 min 0 min 0 W/m 0,0 km/h (0 Bft) 100,00 %
05.05.2020 01:20 8,4 C 6,7 C 6,7 C 79 % 1021,9 hPa 0,0 l/m 0 min 0 min 0 W/m 0,0 km/h (0 Bft) 100,00 %
05.05.2020 01:22 8,3 C 6,7 C 6,7 C 79 % 1021,9 hPa 0,0 l/m 0 min 0 min 0 W/m 0,0 km/h (0 Bft) 97,87 %
05.05.2020 01:24 8,3 C 6,7 C 6,7 C 79 % 1021,9 hPa 0,0 l/m 0 min 0 min 0 W/m 0,0 km/h (0 Bft) 100,00 %
05.05.2020 01:26 8,3 C 6,7 C 6,1 C 79 % 1021,9 hPa 0,0 l/m 0 min 0 min 0 W/m 0,0 km/h (0 Bft) 100,00 %
05.05.2020 01:28 8,3 C 6,7 C 6,1 C 79 % 1021,9 hPa 0,0 l/m 0 min 0 min 0 W/m 0,0 km/h (0 Bft) 100,00 %
05.05.2020 01:30 8,2 C 6,7 C 6,1 C 79 % 1021,8 hPa 0,0 l/m 0 min 0 min 0 W/m 0,0 km/h (0 Bft) 97,87 %
05.05.2020 01:32 8,2 C 6,7 C 6,1 C 79 % 1021,8 hPa 0,0 l/m 0 min 0 min 0 W/m 0,0 km/h (0 Bft) 97,87 %
05.05.2020 01:34 8,2 C 6,7 C 6,1 C 79 % 1021,7 hPa 0,0 l/m 0 min 0 min 0 W/m 0,0 km/h (0 Bft) 100,00 %
05.05.2020 01:36 8,2 C 6,7 C 6,1 C 79 % 1021,7 hPa 0,0 l/m 0 min 0 min 0 W/m 3,2 km/h (1 Bft) 100,00 %
05.05.2020 01:38 8,1 C 6,7 C 6,1 C 79 % 1021,6 hPa 0,0 l/m 0 min 0 min 0 W/m 0,0 km/h (0 Bft) 100,00 %
05.05.2020 01:40 8,1 C 6,7 C 6,1 C 80 % 1021,6 hPa 0,0 l/m 0 min 0 min 0 W/m 0,0 km/h (0 Bft) 97,87 %
05.05.2020 01:42 8,1 C 6,7 C 6,1 C 80 % 1021,6 hPa 0,0 l/m 0 min 0 min 0 W/m 0,0 km/h (0 Bft) 100,00 %
05.05.2020 01:44 8,1 C 6,7 C 6,1 C 80 % 1021,6 hPa 0,0 l/m 0 min 0 min 0 W/m 3,2 km/h (1 Bft) 100,00 %
05.05.2020 01:46 8,0 C 6,1 C 6,1 C 80 % 1021,5 hPa 0,0 l/m 0 min 0 min 0 W/m 0,0 km/h (0 Bft) 100,00 %
05.05.2020 01:48 7,9 C 6,1 C 6,1 C 80 % 1021,4 hPa 0,0 l/m 0 min 0 min 0 W/m 3,2 km/h (1 Bft) 100,00 %
05.05.2020 01:50 7,9 C 6,1 C 6,1 C 80 % 1021,4 hPa 0,0 l/m 0 min 0 min 0 W/m 0,0 km/h (0 Bft) 100,00 %
05.05.2020 01:52 7,9 C 6,1 C 6,1 C 80 % 1021,4 hPa 0,0 l/m 0 min 0 min 0 W/m 3,2 km/h (1 Bft) 98,00 %
05.05.2020 01:54 7,8 C 6,7 C 6,1 C 80 % 1021,4 hPa 0,0 l/m 0 min 0 min 0 W/m 3,2 km/h (1 Bft) 100,00 %
05.05.2020 01:56 7,8 C 6,1 C 6,1 C 80 % 1021,3 hPa 0,0 l/m 0 min 0 min 0 W/m 0,0 km/h (0 Bft) 97,83 %
05.05.2020 01:58 7,8 C 6,1 C 6,1 C 81 % 1021,3 hPa 0,0 l/m 0 min 0 min 0 W/m 0,0 km/h (0 Bft) 97,87 %
05.05.2020 02:00 7,8 C 6,1 C 6,1 C 81 % 1021,3 hPa 0,0 l/m 0 min 0 min 0 W/m 0,0 km/h (0 Bft) 100,00 %
05.05.2020 02:02 7,7 C 6,1 C 6,1 C 81 % 1021,3 hPa 0,0 l/m 0 min 0 min 0 W/m 0,0 km/h (0 Bft) 100,00 %
05.05.2020 02:04 7,7 C 6,1 C 6,1 C 81 % 1021,3 hPa 0,0 l/m 0 min 0 min 0 W/m 0,0 km/h (0 Bft) 100,00 %
05.05.2020 02:06 7,7 C 6,1 C 5,6 C 81 % 1021,3 hPa 0,0 l/m 0 min 0 min 0 W/m 0,0 km/h (0 Bft) 100,00 %
05.05.2020 02:08 7,7 C 6,1 C 5,6 C 81 % 1021,2 hPa 0,0 l/m 0 min 0 min 0 W/m 0,0 km/h (0 Bft) 100,00 %
05.05.2020 02:10 7,6 C 6,1 C 5,6 C 81 % 1021,2 hPa 0,0 l/m 0 min 0 min 0 W/m 0,0 km/h (0 Bft) 100,00 %
05.05.2020 02:12 7,6 C 6,1 C 5,6 C 81 % 1021,2 hPa 0,0 l/m 0 min 0 min 0 W/m 3,2 km/h (1 Bft) 100,00 %
05.05.2020 02:14 7,6 C 6,1 C 5,6 C 82 % 1021,2 hPa 0,0 l/m 0 min 0 min 0 W/m 6,4 km/h (2 Bft) 100,00 %
05.05.2020 02:16 7,6 C 6,1 C 5,6 C 82 % 1021,2 hPa 0,0 l/m 0 min 0 min 0 W/m 0,0 km/h (0 Bft) 97,87 %
05.05.2020 02:18 7,5 C 6,1 C 5,6 C 82 % 1021,1 hPa 0,0 l/m 0 min 0 min 0 W/m 0,0 km/h (0 Bft) 97,87 %
05.05.2020 02:20 7,5 C 6,1 C 5,6 C 82 % 1021,1 hPa 0,0 l/m 0 min 0 min 0 W/m 0,0 km/h (0 Bft) 100,00 %
05.05.2020 02:22 7,4 C 6,1 C 5,6 C 82 % 1021,1 hPa 0,0 l/m 0 min 0 min 0 W/m 3,2 km/h (1 Bft) 100,00 %
05.05.2020 02:24 7,4 C 6,1 C 5,6 C 82 % 1021,0 hPa 0,0 l/m 0 min 0 min 0 W/m 0,0 km/h (0 Bft) 100,00 %
05.05.2020 02:26 7,4 C 6,1 C 5,6 C 82 % 1021,0 hPa 0,0 l/m 0 min 0 min 0 W/m 0,0 km/h (0 Bft) 100,00 %
05.05.2020 02:28 7,4 C 6,1 C 5,6 C 82 % 1020,9 hPa 0,0 l/m 0 min 0 min 0 W/m 9,7 km/h (2 Bft) 97,87 %
05.05.2020 02:30 7,4 C 6,1 C 5,6 C 82 % 1021,0 hPa 0,0 l/m 0 min 0 min 0 W/m 3,2 km/h (1 Bft) 100,00 %
05.05.2020 02:32 7,3 C 6,1 C 5,6 C 82 % 1020,9 hPa 0,0 l/m 0 min 0 min 0 W/m 0,0 km/h (0 Bft) 100,00 %
05.05.2020 02:34 7,3 C 6,1 C 5,6 C 82 % 1020,9 hPa 0,0 l/m 0 min 0 min 0 W/m 12,9 km/h (3 Bft) 97,87 %
05.05.2020 02:36 7,3 C 6,1 C 6,1 C 83 % 1020,9 hPa 0,0 l/m 0 min 0 min 0 W/m 6,4 km/h (2 Bft) 100,00 %
05.05.2020 02:38 7,3 C 6,1 C 6,1 C 83 % 1021,0 hPa 0,0 l/m 0 min 0 min 0 W/m 3,2 km/h (1 Bft) 100,00 %
05.05.2020 02:40 7,3 C 6,1 C 6,1 C 82 % 1020,9 hPa 0,0 l/m 0 min 0 min 0 W/m 0,0 km/h (0 Bft) 100,00 %
05.05.2020 02:42 7,2 C 6,1 C 6,1 C 83 % 1020,9 hPa 0,0 l/m 0 min 0 min 0 W/m 0,0 km/h (0 Bft) 97,87 %
05.05.2020 02:44 7,2 C 6,1 C 5,6 C 83 % 1020,9 hPa 0,0 l/m 0 min 0 min 0 W/m 0,0 km/h (0 Bft) 97,87 %
05.05.2020 02:46 7,2 C 6,1 C 5,6 C 83 % 1020,9 hPa 0,0 l/m 0 min 0 min 0 W/m 0,0 km/h (0 Bft) 93,62 %
05.05.2020 02:48 7,2 C 6,1 C 5,6 C 83 % 1021,0 hPa 0,0 l/m 0 min 0 min 0 W/m 3,2 km/h (1 Bft) 97,83 %
05.05.2020 02:50 7,2 C 6,1 C 5,6 C 83 % 1020,9 hPa 0,0 l/m 0 min 0 min 0 W/m 0,0 km/h (0 Bft) 97,87 %
05.05.2020 02:52 7,2 C 6,1 C 5,6 C 83 % 1020,9 hPa 0,0 l/m 0 min 0 min 0 W/m 0,0 km/h (0 Bft) 95,74 %
05.05.2020 02:54 7,2 C 6,1 C 5,6 C 83 % 1020,9 hPa 0,0 l/m 0 min 0 min 0 W/m 3,2 km/h (1 Bft) 97,87 %
05.05.2020 02:56 7,1 C 6,1 C 5,6 C 83 % 1020,9 hPa 0,0 l/m 0 min 0 min 0 W/m 3,2 km/h (1 Bft) 97,87 %
05.05.2020 02:58 7,1 C 6,1 C 5,6 C 83 % 1020,9 hPa 0,0 l/m 0 min 0 min 0 W/m 6,4 km/h (2 Bft) 97,87 %
05.05.2020 03:00 7,1 C 6,1 C 5,6 C 83 % 1020,9 hPa 0,0 l/m 0 min 0 min 0 W/m 6,4 km/h (2 Bft) 93,48 %
05.05.2020 03:02 7,1 C 6,1 C 5,6 C 83 % 1020,9 hPa 0,0 l/m 0 min 0 min 0 W/m 0,0 km/h (0 Bft) 95,74 %
05.05.2020 03:04 7,1 C 5,6 C 5,6 C 83 % 1021,0 hPa 0,0 l/m 0 min 0 min 0 W/m 6,4 km/h (2 Bft) 95,74 %
05.05.2020 03:06 7,1 C 6,1 C 5,6 C 83 % 1021,0 hPa 0,0 l/m 0 min 0 min 0 W/m 6,4 km/h (2 Bft) 95,74 %
05.05.2020 03:08 7,0 C 5,6 C 5,6 C 83 % 1021,1 hPa 0,0 l/m 0 min 0 min 0 W/m 3,2 km/h (1 Bft) 95,74 %
05.05.2020 03:10 7,0 C 5,6 C 5,6 C 83 % 1021,0 hPa 0,0 l/m 0 min 0 min 0 W/m 0,0 km/h (0 Bft) 95,74 %
05.05.2020 03:12 7,0 C 5,6 C 5,6 C 83 % 1021,0 hPa 0,0 l/m 0 min 0 min 0 W/m 0,0 km/h (0 Bft) 95,65 %
05.05.2020 03:14 6,9 C 5,6 C 5,6 C 83 % 1021,0 hPa 0,0 l/m 0 min 0 min 0 W/m 0,0 km/h (0 Bft) 95,35 %
05.05.2020 03:16 6,9 C 5,6 C 5,6 C 83 % 1021,0 hPa 0,0 l/m 0 min 0 min 0 W/m 6,4 km/h (2 Bft) 97,87 %
05.05.2020 03:18 6,9 C 5,6 C 5,6 C 83 % 1021,1 hPa 0,0 l/m 0 min 0 min 0 W/m 0,0 km/h (0 Bft) 98,00 %
05.05.2020 03:20 6,9 C 5,6 C 5,6 C 84 % 1021,1 hPa 0,0 l/m 0 min 0 min 0 W/m 6,4 km/h (2 Bft) 95,74 %
05.05.2020 03:22 6,9 C 5,6 C 5,6 C 84 % 1021,1 hPa 0,0 l/m 0 min 0 min 0 W/m 6,4 km/h (2 Bft) 97,87 %
05.05.2020 03:24 6,9 C 5,6 C 5,6 C 84 % 1021,1 hPa 0,0 l/m 0 min 0 min 0 W/m 3,2 km/h (1 Bft) 97,83 %
05.05.2020 03:26 6,9 C 5,6 C 5,6 C 84 % 1021,2 hPa 0,0 l/m 0 min 0 min 0 W/m 3,2 km/h (1 Bft) 97,87 %
05.05.2020 03:28 6,8 C 5,6 C 5,6 C 84 % 1021,2 hPa 0,0 l/m 0 min 0 min 0 W/m 3,2 km/h (1 Bft) 97,87 %
05.05.2020 03:30 6,8 C 5,6 C 5,6 C 84 % 1021,2 hPa 0,0 l/m 0 min 0 min 0 W/m 0,0 km/h (0 Bft) 97,87 %
05.05.2020 03:32 6,8 C 5,6 C 5,6 C 84 % 1021,3 hPa 0,0 l/m 0 min 0 min 0 W/m 0,0 km/h (0 Bft) 97,87 %
05.05.2020 03:34 6,8 C 5,6 C 5,0 C 84 % 1021,3 hPa 0,0 l/m 0 min 0 min 0 W/m 0,0 km/h (0 Bft) 93,62 %
05.05.2020 03:36 6,8 C 5,6 C 5,0 C 84 % 1021,2 hPa 0,0 l/m 0 min 0 min 0 W/m 0,0 km/h (0 Bft) 97,83 %
05.05.2020 03:38 6,8 C 5,6 C 5,0 C 84 % 1021,3 hPa 0,0 l/m 0 min 0 min 0 W/m 0,0 km/h (0 Bft) 95,74 %
05.05.2020 03:40 6,8 C 5,6 C 5,0 C 84 % 1021,3 hPa 0,0 l/m 0 min 0 min 0 W/m 0,0 km/h (0 Bft) 95,74 %
05.05.2020 03:42 6,7 C 5,6 C 5,0 C 84 % 1021,2 hPa 0,0 l/m 0 min 0 min 0 W/m 3,2 km/h (1 Bft) 93,62 %
05.05.2020 03:44 6,7 C 5,6 C 5,0 C 84 % 1021,2 hPa 0,0 l/m 0 min 0 min 0 W/m 0,0 km/h (0 Bft) 97,87 %
05.05.2020 03:46 6,7 C 5,6 C 5,0 C 84 % 1021,2 hPa 0,0 l/m 0 min 0 min 0 W/m 0,0 km/h (0 Bft) 95,65 %
05.05.2020 03:48 6,7 C 5,6 C 5,0 C 84 % 1021,2 hPa 0,0 l/m 0 min 0 min 0 W/m 3,2 km/h (1 Bft) 97,87 %
05.05.2020 03:50 6,6 C 5,6 C 5,0 C 84 % 1021,2 hPa 0,0 l/m 0 min 0 min 0 W/m 9,7 km/h (2 Bft) 97,87 %
05.05.2020 03:52 6,6 C 5,6 C 5,0 C 84 % 1021,2 hPa 0,0 l/m 0 min 0 min 0 W/m 0,0 km/h (0 Bft) 95,74 %
05.05.2020 03:54 6,6 C 5,6 C 5,0 C 84 % 1021,3 hPa 0,0 l/m 0 min 0 min 0 W/m 0,0 km/h (0 Bft) 100,00 %
05.05.2020 03:56 6,6 C 5,6 C 5,0 C 84 % 1021,2 hPa 0,0 l/m 0 min 0 min 0 W/m 0,0 km/h (0 Bft) 100,00 %
05.05.2020 03:58 6,6 C 5,6 C 5,0 C 84 % 1021,2 hPa 0,0 l/m 0 min 0 min 0 W/m 0,0 km/h (0 Bft) 65,96 %
05.05.2020 04:00 6,6 C 5,0 C 5,0 C 84 % 1021,2 hPa 0,0 l/m 0 min 0 min 0 W/m 0,0 km/h (0 Bft) 90,70 %
05.05.2020 04:02 6,5 C 5,6 C 5,0 C 84 % 1021,3 hPa 0,0 l/m 0 min 0 min 0 W/m 3,2 km/h (1 Bft) 100,00 %
05.05.2020 04:04 6,5 C 5,0 C 5,0 C 84 % 1021,3 hPa 0,0 l/m 0 min 0 min 0 W/m 0,0 km/h (0 Bft) 100,00 %
05.05.2020 04:06 6,5 C 5,0 C 5,0 C 84 % 1021,3 hPa 0,0 l/m 0 min 0 min 0 W/m 0,0 km/h (0 Bft) 97,87 %
05.05.2020 04:08 6,5 C 5,0 C 5,0 C 84 % 1021,3 hPa 0,0 l/m 0 min 0 min 0 W/m 0,0 km/h (0 Bft) 100,00 %
05.05.2020 04:10 6,5 C 5,0 C 5,0 C 84 % 1021,3 hPa 0,0 l/m 0 min 0 min 0 W/m 0,0 km/h (0 Bft) 100,00 %
05.05.2020 04:12 6,5 C 5,0 C 5,0 C 85 % 1021,2 hPa 0,0 l/m 0 min 0 min 0 W/m 0,0 km/h (0 Bft) 97,87 %
05.05.2020 04:14 6,4 C 5,0 C 5,0 C 85 % 1021,1 hPa 0,0 l/m 0 min 0 min 0 W/m 0,0 km/h (0 Bft) 100,00 %
05.05.2020 04:16 6,4 C 5,0 C 5,0 C 85 % 1021,2 hPa 0,0 l/m 0 min 0 min 0 W/m 0,0 km/h (0 Bft) 100,00 %
05.05.2020 04:18 6,4 C 5,0 C 4,4 C 85 % 1021,2 hPa 0,0 l/m 0 min 0 min 0 W/m 0,0 km/h (0 Bft) 100,00 %
05.05.2020 04:20 6,3 C 5,0 C 4,4 C 85 % 1021,1 hPa 0,0 l/m 0 min 0 min 0 W/m 0,0 km/h (0 Bft) 100,00 %
05.05.2020 04:22 6,3 C 5,0 C 4,4 C 85 % 1021,2 hPa 0,0 l/m 0 min 0 min 0 W/m 0,0 km/h (0 Bft) 100,00 %
05.05.2020 04:24 6,3 C 5,0 C 4,4 C 85 % 1021,2 hPa 0,0 l/m 0 min 0 min 0 W/m 0,0 km/h (0 Bft) 100,00 %
05.05.2020 04:26 6,3 C 5,0 C 4,4 C 85 % 1021,2 hPa 0,0 l/m 0 min 0 min 0 W/m 0,0 km/h (0 Bft) 97,87 %
05.05.2020 04:28 6,3 C 5,0 C 4,4 C 85 % 1021,3 hPa 0,0 l/m 0 min 0 min 0 W/m 3,2 km/h (1 Bft) 97,87 %
05.05.2020 04:30 6,3 C 5,0 C 4,4 C 85 % 1021,1 hPa 0,0 l/m 0 min 0 min 0 W/m 3,2 km/h (1 Bft) 95,74 %
05.05.2020 04:32 6,2 C 5,0 C 4,4 C 85 % 1021,1 hPa 0,0 l/m 0 min 0 min 0 W/m 0,0 km/h (0 Bft) 93,62 %
05.05.2020 04:34 6,2 C 5,0 C 4,4 C 85 % 1021,2 hPa 0,0 l/m 0 min 0 min 0 W/m 0,0 km/h (0 Bft) 95,65 %
05.05.2020 04:36 6,2 C 5,0 C 4,4 C 85 % 1021,2 hPa 0,0 l/m 0 min 0 min 0 W/m 3,2 km/h (1 Bft) 97,87 %
05.05.2020 04:38 6,2 C 5,0 C 5,0 C 85 % 1021,1 hPa 0,0 l/m 0 min 0 min 0 W/m 6,4 km/h (2 Bft) 95,74 %
05.05.2020 04:40 6,2 C 5,0 C 5,0 C 86 % 1021,2 hPa 0,0 l/m 0 min 0 min 0 W/m 9,7 km/h (2 Bft) 93,62 %
05.05.2020 04:42 6,1 C 5,0 C 5,0 C 86 % 1021,2 hPa 0,0 l/m 0 min 0 min 0 W/m 6,4 km/h (2 Bft) 95,74 %
05.05.2020 04:44 6,1 C 5,0 C 5,0 C 86 % 1021,2 hPa 0,0 l/m 0 min 0 min 0 W/m 0,0 km/h (0 Bft) 95,65 %
05.05.2020 04:46 6,1 C 5,0 C 4,4 C 86 % 1021,2 hPa 0,0 l/m 0 min 0 min 0 W/m 0,0 km/h (0 Bft) 95,74 %
05.05.2020 04:48 6,1 C 5,0 C 4,4 C 86 % 1021,2 hPa 0,0 l/m 0 min 0 min 0 W/m 3,2 km/h (1 Bft) 93,62 %
05.05.2020 04:51 6,1 C 5,0 C 4,4 C 86 % 1021,4 hPa 0,0 l/m 0 min 0 min 0 W/m 0,0 km/h (0 Bft) 91,43 %
05.05.2020 04:52 6,1 C 5,0 C 4,4 C 86 % 1021,4 hPa 0,0 l/m 0 min 0 min 0 W/m 0,0 km/h (0 Bft) 95,83 %
05.05.2020 04:54 6,1 C 5,0 C 4,4 C 86 % 1021,5 hPa 0,0 l/m 0 min 0 min 0 W/m 0,0 km/h (0 Bft) 95,74 %
05.05.2020 04:56 6,1 C 4,4 C 4,4 C 86 % 1021,5 hPa 0,0 l/m 0 min 0 min 0 W/m 0,0 km/h (0 Bft) 97,14 %
05.05.2020 04:58 6,0 C 4,4 C 4,4 C 86 % 1021,4 hPa 0,0 l/m 0 min 0 min 0 W/m 0,0 km/h (0 Bft) 94,55 %
05.05.2020 05:00 6,0 C 4,4 C 4,4 C 86 % 1021,5 hPa 0,0 l/m 0 min 0 min 0 W/m 0,0 km/h (0 Bft) 96,00 %
05.05.2020 05:02 6,0 C 4,4 C 4,4 C 86 % 1021,6 hPa 0,0 l/m 0 min 0 min 0 W/m 0,0 km/h (0 Bft) 91,49 %
05.05.2020 05:04 5,9 C 4,4 C 3,9 C 86 % 1021,6 hPa 0,0 l/m 0 min 0 min 0 W/m 0,0 km/h (0 Bft) 97,22 %
05.05.2020 05:06 5,9 C 4,4 C 3,9 C 86 % 1021,5 hPa 0,0 l/m 0 min 0 min 0 W/m 0,0 km/h (0 Bft) 94,55 %
05.05.2020 05:08 5,9 C 4,4 C 3,9 C 86 % 1021,5 hPa 0,0 l/m 0 min 0 min 0 W/m 0,0 km/h (0 Bft) 95,74 %
05.05.2020 05:10 5,9 C 4,4 C 3,9 C 86 % 1021,5 hPa 0,0 l/m 0 min 0 min 0 W/m 3,2 km/h (1 Bft) 96,00 %
05.05.2020 05:12 5,8 C 4,4 C 3,9 C 86 % 1021,5 hPa 0,0 l/m 0 min 0 min 0 W/m 0,0 km/h (0 Bft) 91,43 %
05.05.2020 05:14 5,8 C 4,4 C 3,9 C 86 % 1021,5 hPa 0,0 l/m 0 min 0 min 0 W/m 0,0 km/h (0 Bft) 98,18 %
05.05.2020 05:16 5,8 C 4,4 C 3,9 C 86 % 1021,5 hPa 0,0 l/m 0 min 0 min 0 W/m 0,0 km/h (0 Bft) 98,00 %
05.05.2020 05:18 5,8 C 4,4 C 3,9 C 86 % 1021,5 hPa 0,0 l/m 0 min 0 min 0 W/m 0,0 km/h (0 Bft) 97,87 %
05.05.2020 05:20 5,7 C 4,4 C 3,9 C 86 % 1021,5 hPa 0,0 l/m 0 min 0 min 0 W/m 0,0 km/h (0 Bft) 97,14 %
05.05.2020 05:22 5,7 C 4,4 C 3,9 C 86 % 1021,5 hPa 0,0 l/m 0 min 0 min 0 W/m 9,7 km/h (2 Bft) 98,18 %
05.05.2020 05:24 5,7 C 4,4 C 3,9 C 87 % 1021,4 hPa 0,0 l/m 0 min 0 min 0 W/m 0,0 km/h (0 Bft) 98,00 %
05.05.2020 05:26 5,7 C 4,4 C 3,9 C 87 % 1021,5 hPa 0,0 l/m 0 min 0 min 0 W/m 0,0 km/h (0 Bft) 97,87 %
05.05.2020 05:28 5,7 C 4,4 C 3,9 C 86 % 1021,5 hPa 0,0 l/m 0 min 0 min 0 W/m 3,2 km/h (1 Bft) 97,14 %
05.05.2020 05:30 5,6 C 4,4 C 3,9 C 87 % 1021,5 hPa 0,0 l/m 0 min 0 min 0 W/m 3,2 km/h (1 Bft) 98,21 %
05.05.2020 05:32 5,6 C 4,4 C 3,9 C 87 % 1021,5 hPa 0,0 l/m 0 min 0 min 0 W/m 3,2 km/h (1 Bft) 93,88 %
05.05.2020 05:34 5,6 C 4,4 C 3,9 C 87 % 1021,5 hPa 0,0 l/m 0 min 0 min 0 W/m 0,0 km/h (0 Bft) 93,75 %
05.05.2020 05:36 5,6 C 4,4 C 3,9 C 87 % 1021,6 hPa 0,0 l/m 0 min 0 min 0 W/m 0,0 km/h (0 Bft) 97,14 %
05.05.2020 05:38 5,5 C 4,4 C 3,9 C 87 % 1021,6 hPa 0,0 l/m 0 min 0 min 0 W/m 3,2 km/h (1 Bft) 96,23 %
05.05.2020 05:40 5,5 C 4,4 C 3,9 C 87 % 1021,6 hPa 0,0 l/m 0 min 0 min 0 W/m 0,0 km/h (0 Bft) 98,00 %
05.05.2020 05:42 5,4 C 3,9 C 3,9 C 87 % 1021,5 hPa 0,0 l/m 0 min 0 min 0 W/m 0,0 km/h (0 Bft) 97,96 %
05.05.2020 05:44 5,4 C 3,9 C 3,9 C 87 % 1021,5 hPa 0,0 l/m 0 min 0 min 0 W/m 0,0 km/h (0 Bft) 100,00 %
05.05.2020 05:46 5,4 C 3,9 C 3,3 C 87 % 1021,5 hPa 0,0 l/m 0 min 0 min 0 W/m 0,0 km/h (0 Bft) 98,18 %
05.05.2020 05:48 5,4 C 3,9 C 3,3 C 87 % 1021,4 hPa 0,0 l/m 0 min 0 min 0 W/m 0,0 km/h (0 Bft) 100,00 %
05.05.2020 05:50 5,4 C 3,9 C 3,3 C 87 % 1021,5 hPa 0,0 l/m 0 min 0 min 0 W/m 0,0 km/h (0 Bft) 100,00 %
05.05.2020 05:52 5,3 C 3,9 C 3,3 C 87 % 1021,4 hPa 0,0 l/m 0 min 0 min 0 W/m 0,0 km/h (0 Bft) 97,14 %
05.05.2020 05:54 5,3 C 3,9 C 3,3 C 87 % 1021,4 hPa 0,0 l/m 0 min 0 min 0 W/m 3,2 km/h (1 Bft) 98,18 %
05.05.2020 05:56 5,3 C 3,9 C 3,3 C 87 % 1021,4 hPa 0,0 l/m 0 min 0 min 0 W/m 0,0 km/h (0 Bft) 100,00 %
05.05.2020 05:58 5,3 C 3,9 C 3,3 C 87 % 1021,4 hPa 0,0 l/m 0 min 0 min 4 W/m 3,2 km/h (1 Bft) 100,00 %
05.05.2020 06:00 5,3 C 3,9 C 3,3 C 87 % 1021,4 hPa 0,0 l/m 0 min 0 min 5 W/m 0,0 km/h (0 Bft) 100,00 %
05.05.2020 06:02 5,2 C 3,9 C 3,3 C 87 % 1021,4 hPa 0,0 l/m 0 min 0 min 5 W/m 0,0 km/h (0 Bft) 94,55 %
05.05.2020 06:04 5,2 C 3,9 C 3,3 C 87 % 1021,4 hPa 0,0 l/m 0 min 0 min 7 W/m 0,0 km/h (0 Bft) 98,00 %
05.05.2020 06:06 5,2 C 3,9 C 3,3 C 87 % 1021,4 hPa 0,0 l/m 0 min 0 min 7 W/m 0,0 km/h (0 Bft) 97,87 %
05.05.2020 06:08 5,2 C 3,9 C 3,3 C 87 % 1021,4 hPa 0,0 l/m 0 min 0 min 8 W/m 3,2 km/h (1 Bft) 95,74 %
05.05.2020 06:10 5,2 C 3,9 C 3,3 C 87 % 1021,4 hPa 0,0 l/m 0 min 0 min 10 W/m 0,0 km/h (0 Bft) 97,14 %
05.05.2020 06:12 5,1 C 3,9 C 3,9 C 88 % 1021,5 hPa 0,0 l/m 0 min 0 min 11 W/m 3,2 km/h (1 Bft) 96,36 %
05.05.2020 06:14 5,1 C 3,9 C 3,9 C 88 % 1021,4 hPa 0,0 l/m 0 min 0 min 12 W/m 0,0 km/h (0 Bft) 96,00 %
05.05.2020 06:16 5,1 C 4,4 C 3,9 C 88 % 1021,4 hPa 0,0 l/m 0 min 0 min 13 W/m 0,0 km/h (0 Bft) 97,87 %
05.05.2020 06:18 5,1 C 4,4 C 3,9 C 88 % 1021,4 hPa 0,0 l/m 0 min 0 min 14 W/m 6,4 km/h (2 Bft) 97,14 %
05.05.2020 06:20 5,1 C 4,4 C 3,9 C 88 % 1021,3 hPa 0,0 l/m 0 min 0 min 16 W/m 0,0 km/h (0 Bft) 98,18 %
05.05.2020 06:22 5,1 C 4,4 C 3,9 C 88 % 1021,3 hPa 0,0 l/m 0 min 0 min 17 W/m 0,0 km/h (0 Bft) 96,00 %
05.05.2020 06:24 5,1 C 4,4 C 3,9 C 88 % 1021,3 hPa 0,0 l/m 0 min 0 min 18 W/m 3,2 km/h (1 Bft) 95,74 %
05.05.2020 06:26 5,1 C 4,4 C 3,9 C 89 % 1021,2 hPa 0,0 l/m 0 min 0 min 19 W/m 3,2 km/h (1 Bft) 97,87 %
05.05.2020 06:28 5,1 C 4,4 C 4,4 C 89 % 1021,3 hPa 0,0 l/m 0 min 0 min 20 W/m 6,4 km/h (2 Bft) 97,14 %
05.05.2020 06:30 5,1 C 4,4 C 4,4 C 89 % 1021,2 hPa 0,0 l/m 0 min 0 min 21 W/m 0,0 km/h (0 Bft) 96,36 %
05.05.2020 06:32 5,1 C 4,4 C 4,4 C 89 % 1021,2 hPa 0,0 l/m 0 min 0 min 23 W/m 6,4 km/h (2 Bft) 96,00 %
05.05.2020 06:34 5,1 C 4,4 C 4,4 C 89 % 1021,2 hPa 0,0 l/m 0 min 0 min 23 W/m 0,0 km/h (0 Bft) 95,83 %
05.05.2020 06:36 5,1 C 4,4 C 4,4 C 89 % 1021,3 hPa 0,0 l/m 0 min 0 min 25 W/m 0,0 km/h (0 Bft) 97,14 %
05.05.2020 06:38 5,1 C 4,4 C 4,4 C 89 % 1021,3 hPa 0,0 l/m 0 min 0 min 25 W/m 3,2 km/h (1 Bft) 96,23 %
05.05.2020 06:40 5,1 C 4,4 C 4,4 C 89 % 1021,3 hPa 0,0 l/m 0 min 0 min 26 W/m 0,0 km/h (0 Bft) 94,00 %
05.05.2020 06:42 5,1 C 5,0 C 4,4 C 89 % 1021,3 hPa 0,0 l/m 0 min 0 min 28 W/m 3,2 km/h (1 Bft) 93,88 %
05.05.2020 06:44 5,1 C 5,0 C 4,4 C 89 % 1021,3 hPa 0,0 l/m 0 min 0 min 30 W/m 0,0 km/h (0 Bft) 94,29 %
05.05.2020 06:46 5,1 C 5,0 C 4,4 C 89 % 1021,3 hPa 0,0 l/m 0 min 0 min 32 W/m 0,0 km/h (0 Bft) 94,55 %
05.05.2020 06:48 5,1 C 5,0 C 4,4 C 89 % 1021,3 hPa 0,0 l/m 0 min 0 min 33 W/m 0,0 km/h (0 Bft) 92,00 %
05.05.2020 06:50 5,1 C 5,0 C 4,4 C 89 % 1021,3 hPa 0,0 l/m 0 min 0 min 33 W/m 9,7 km/h (2 Bft) 95,74 %
05.05.2020 06:52 5,2 C 5,0 C 4,4 C 89 % 1021,3 hPa 0,0 l/m 0 min 0 min 33 W/m 6,4 km/h (2 Bft) 97,14 %
05.05.2020 06:54 5,2 C 5,0 C 4,4 C 89 % 1021,4 hPa 0,0 l/m 0 min 0 min 33 W/m 6,4 km/h (2 Bft) 94,55 %
05.05.2020 06:56 5,2 C 5,0 C 5,0 C 89 % 1021,3 hPa 0,0 l/m 0 min 0 min 33 W/m 3,2 km/h (1 Bft) 98,00 %
05.05.2020 06:58 5,2 C 5,0 C 5,0 C 89 % 1021,3 hPa 0,0 l/m 0 min 0 min 33 W/m 3,2 km/h (1 Bft) 97,87 %
05.05.2020 07:00 5,3 C 5,0 C 5,0 C 89 % 1021,3 hPa 0,0 l/m 0 min 0 min 33 W/m 3,2 km/h (1 Bft) 94,44 %
05.05.2020 07:02 5,3 C 5,6 C 5,0 C 89 % 1021,3 hPa 0,0 l/m 0 min 0 min 33 W/m 0,0 km/h (0 Bft) 92,73 %
05.05.2020 07:04 5,3 C 5,6 C 5,0 C 89 % 1021,3 hPa 0,0 l/m 0 min 0 min 32 W/m 3,2 km/h (1 Bft) 97,96 %
05.05.2020 07:06 5,3 C 5,6 C 5,0 C 90 % 1021,3 hPa 0,0 l/m 0 min 0 min 32 W/m 9,7 km/h (2 Bft) 97,92 %
05.05.2020 07:08 5,3 C 5,6 C 5,0 C 89 % 1021,4 hPa 0,0 l/m 0 min 0 min 32 W/m 9,7 km/h (2 Bft) 97,14 %
05.05.2020 07:10 5,4 C 5,6 C 5,0 C 89 % 1021,3 hPa 0,0 l/m 0 min 0 min 32 W/m 3,2 km/h (1 Bft) 94,44 %
05.05.2020 07:12 5,4 C 5,6 C 5,0 C 89 % 1021,3 hPa 0,0 l/m 0 min 0 min 32 W/m 12,9 km/h (3 Bft) 98,00 %
05.05.2020 07:14 5,4 C 5,6 C 5,0 C 89 % 1021,4 hPa 0,0 l/m 0 min 0 min 33 W/m 6,4 km/h (2 Bft) 95,83 %
05.05.2020 07:16 5,5 C 5,6 C 5,0 C 89 % 1021,5 hPa 0,0 l/m 0 min 0 min 34 W/m 6,4 km/h (2 Bft) 97,14 %
05.05.2020 07:18 5,6 C 5,6 C 5,0 C 89 % 1021,5 hPa 0,0 l/m 0 min 0 min 35 W/m 9,7 km/h (2 Bft) 98,15 %
05.05.2020 07:20 5,6 C 5,6 C 5,0 C 89 % 1021,5 hPa 0,0 l/m 0 min 0 min 37 W/m 6,4 km/h (2 Bft) 100,00 %
05.05.2020 07:22 5,6 C 5,6 C 5,0 C 89 % 1021,5 hPa 0,0 l/m 0 min 0 min 38 W/m 3,2 km/h (1 Bft) 100,00 %
05.05.2020 07:24 5,6 C 5,6 C 5,0 C 89 % 1021,6 hPa 0,0 l/m 0 min 0 min 40 W/m 3,2 km/h (1 Bft) 100,00 %
05.05.2020 07:26 5,6 C 5,6 C 5,0 C 89 % 1021,6 hPa 0,0 l/m 0 min 0 min 42 W/m 3,2 km/h (1 Bft) 100,00 %
05.05.2020 07:28 5,7 C 5,6 C 5,0 C 89 % 1021,6 hPa 0,0 l/m 0 min 0 min 44 W/m 0,0 km/h (0 Bft) 97,96 %
05.05.2020 07:30 5,7 C 5,6 C 5,0 C 89 % 1021,7 hPa 0,0 l/m 0 min 0 min 45 W/m 3,2 km/h (1 Bft) 100,00 %
05.05.2020 07:32 5,7 C 6,1 C 5,0 C 89 % 1021,6 hPa 0,0 l/m 0 min 0 min 46 W/m 9,7 km/h (2 Bft) 100,00 %
05.05.2020 07:34 5,7 C 6,1 C 5,0 C 88 % 1021,7 hPa 0,0 l/m 0 min 0 min 47 W/m 3,2 km/h (1 Bft) 100,00 %
05.05.2020 07:36 5,8 C 6,1 C 5,6 C 88 % 1021,7 hPa 0,0 l/m 0 min 0 min 48 W/m 0,0 km/h (0 Bft) 98,00 %
05.05.2020 07:38 5,8 C 6,1 C 5,6 C 88 % 1021,7 hPa 0,0 l/m 0 min 0 min 51 W/m 6,4 km/h (2 Bft) 100,00 %
05.05.2020 07:40 5,8 C 6,1 C 5,6 C 88 % 1021,8 hPa 0,0 l/m 0 min 0 min 51 W/m 12,9 km/h (3 Bft) 100,00 %
05.05.2020 07:42 5,9 C 6,1 C 5,6 C 88 % 1021,8 hPa 0,0 l/m 0 min 0 min 53 W/m 6,4 km/h (2 Bft) 100,00 %
05.05.2020 07:44 5,9 C 6,1 C 5,6 C 88 % 1021,8 hPa 0,0 l/m 0 min 0 min 53 W/m 6,4 km/h (2 Bft) 100,00 %
05.05.2020 07:46 5,9 C 6,1 C 5,6 C 88 % 1021,8 hPa 0,0 l/m 0 min 0 min 53 W/m 6,4 km/h (2 Bft) 100,00 %
05.05.2020 07:50 6,1 C 6,1 C 5,6 C 88 % 1021,8 hPa 0,0 l/m 0 min 0 min 53 W/m 6,4 km/h (2 Bft) 98,36 %
05.05.2020 07:52 6,1 C 6,1 C 5,6 C 88 % 1021,8 hPa 0,0 l/m 0 min 0 min 55 W/m 6,4 km/h (2 Bft) 100,00 %
05.05.2020 07:54 6,1 C 6,7 C 5,6 C 88 % 1021,7 hPa 0,0 l/m 0 min 0 min 58 W/m 6,4 km/h (2 Bft) 100,00 %
05.05.2020 07:56 6,2 C 6,7 C 5,6 C 88 % 1021,7 hPa 0,0 l/m 0 min 0 min 60 W/m 12,9 km/h (3 Bft) 96,00 %
05.05.2020 07:58 6,2 C 6,7 C 5,6 C 87 % 1021,7 hPa 0,0 l/m 0 min 0 min 62 W/m 6,4 km/h (2 Bft) 100,00 %
05.05.2020 08:00 6,2 C 6,7 C 6,1 C 87 % 1021,7 hPa 0,0 l/m 0 min 0 min 63 W/m 3,2 km/h (1 Bft) 100,00 %
05.05.2020 08:02 6,3 C 6,7 C 6,1 C 87 % 1021,7 hPa 0,0 l/m 0 min 0 min 65 W/m 3,2 km/h (1 Bft) 100,00 %
05.05.2020 08:04 6,3 C 6,7 C 6,1 C 87 % 1021,7 hPa 0,0 l/m 0 min 0 min 68 W/m 6,4 km/h (2 Bft) 100,00 %
05.05.2020 08:06 6,4 C 6,7 C 6,1 C 87 % 1021,7 hPa 0,0 l/m 0 min 0 min 70 W/m 12,9 km/h (3 Bft) 100,00 %
05.05.2020 08:08 6,4 C 7,2 C 6,1 C 87 % 1021,6 hPa 0,0 l/m 0 min 0 min 71 W/m 12,9 km/h (3 Bft) 100,00 %
05.05.2020 08:10 6,5 C 7,2 C 6,1 C 87 % 1021,6 hPa 0,0 l/m 0 min 0 min 70 W/m 12,9 km/h (3 Bft) 97,96 %
05.05.2020 08:12 6,5 C 7,2 C 6,1 C 87 % 1021,7 hPa 0,0 l/m 0 min 0 min 74 W/m 12,9 km/h (3 Bft) 100,00 %
05.05.2020 08:14 6,6 C 7,2 C 6,1 C 87 % 1021,7 hPa 0,0 l/m 0 min 0 min 76 W/m 9,7 km/h (2 Bft) 100,00 %
05.05.2020 08:16 6,6 C 7,2 C 6,1 C 87 % 1021,8 hPa 0,0 l/m 0 min 0 min 78 W/m 6,4 km/h (2 Bft) 100,00 %
05.05.2020 08:18 6,6 C 7,2 C 6,7 C 86 % 1021,8 hPa 0,0 l/m 0 min 0 min 82 W/m 9,7 km/h (2 Bft) 97,87 %
05.05.2020 08:20 6,7 C 7,8 C 6,7 C 86 % 1021,8 hPa 0,0 l/m 0 min 0 min 87 W/m 6,4 km/h (2 Bft) 98,18 %
05.05.2020 08:22 6,7 C 7,8 C 6,7 C 86 % 1021,8 hPa 0,0 l/m 0 min 0 min 100 W/m 16,1 km/h (3 Bft) 95,74 %
05.05.2020 08:24 6,8 C 8,9 C 6,7 C 86 % 1021,8 hPa 0,0 l/m 0 min 0 min 114 W/m 6,4 km/h (2 Bft) 97,96 %
05.05.2020 08:26 6,9 C 11,1 C 6,7 C 86 % 1021,7 hPa 0,0 l/m 0 min 0 min 141 W/m 6,4 km/h (2 Bft) 97,87 %
05.05.2020 08:28 6,9 C 12,2 C 6,7 C 85 % 1021,8 hPa 0,0 l/m 0 min 0 min 166 W/m 9,7 km/h (2 Bft) 97,92 %
05.05.2020 08:30 7,1 C 12,8 C 7,2 C 85 % 1021,7 hPa 0,0 l/m 2 min 0 min 190 W/m 6,4 km/h (2 Bft) 100,00 %
05.05.2020 08:32 7,1 C 12,2 C 7,2 C 85 % 1021,7 hPa 0,0 l/m 2 min 0 min 225 W/m 22,5 km/h (4 Bft) 94,55 %
05.05.2020 08:34 7,2 C 11,7 C 7,2 C 85 % 1021,8 hPa 0,0 l/m 2 min 0 min 243 W/m 6,4 km/h (2 Bft) 98,00 %
05.05.2020 08:36 7,3 C 12,2 C 7,2 C 85 % 1021,8 hPa 0,0 l/m 2 min 0 min 270 W/m 12,9 km/h (3 Bft) 97,87 %
05.05.2020 08:38 7,5 C 12,8 C 7,2 C 85 % 1021,8 hPa 0,0 l/m 2 min 0 min 312 W/m 6,4 km/h (2 Bft) 97,14 %
05.05.2020 08:40 7,7 C 12,8 C 7,8 C 84 % 1021,8 hPa 0,0 l/m 2 min 0 min 298 W/m 6,4 km/h (2 Bft) 95,74 %
05.05.2020 08:42 7,8 C 12,8 C 7,8 C 84 % 1021,8 hPa 0,0 l/m 2 min 0 min 327 W/m 6,4 km/h (2 Bft) 91,49 %
05.05.2020 08:44 7,9 C 13,3 C 8,3 C 84 % 1021,8 hPa 0,0 l/m 2 min 0 min 368 W/m 6,4 km/h (2 Bft) 96,36 %
05.05.2020 08:46 8,1 C 13,3 C 8,3 C 84 % 1021,8 hPa 0,0 l/m 2 min 0 min 370 W/m 6,4 km/h (2 Bft) 96,00 %
05.05.2020 08:48 8,2 C 12,8 C 8,9 C 83 % 1021,8 hPa 0,0 l/m 2 min 0 min 367 W/m 12,9 km/h (3 Bft) 93,62 %
05.05.2020 08:50 8,3 C 12,8 C 8,9 C 82 % 1021,9 hPa 0,0 l/m 2 min 0 min 375 W/m 16,1 km/h (3 Bft) 97,14 %
05.05.2020 08:52 8,4 C 12,8 C 9,4 C 81 % 1021,9 hPa 0,0 l/m 2 min 0 min 386 W/m 16,1 km/h (3 Bft) 94,55 %
05.05.2020 08:54 8,5 C 12,8 C 9,4 C 81 % 1021,8 hPa 0,0 l/m 2 min 0 min 382 W/m 9,7 km/h (2 Bft) 96,00 %
05.05.2020 08:56 8,6 C 12,8 C 9,4 C 80 % 1021,9 hPa 0,0 l/m 2 min 0 min 406 W/m 6,4 km/h (2 Bft) 95,74 %
05.05.2020 08:58 8,7 C 13,3 C 10,6 C 80 % 1021,9 hPa 0,0 l/m 2 min 0 min 417 W/m 3,2 km/h (1 Bft) 95,74 %
05.05.2020 09:00 8,8 C 13,9 C 12,2 C 80 % 1021,9 hPa 0,0 l/m 2 min 0 min 474 W/m 6,4 km/h (2 Bft) 94,29 %
05.05.2020 09:02 9,0 C 14,4 C 15,0 C 80 % 1021,9 hPa 0,0 l/m 2 min 0 min 489 W/m 9,7 km/h (2 Bft) 98,18 %
05.05.2020 09:04 9,1 C 14,4 C 16,7 C 79 % 1021,8 hPa 0,0 l/m 2 min 0 min 492 W/m 9,7 km/h (2 Bft) 97,87 %
05.05.2020 09:06 9,2 C 15,0 C 17,8 C 79 % 1021,8 hPa 0,0 l/m 2 min 0 min 489 W/m 9,7 km/h (2 Bft) 95,74 %
05.05.2020 09:08 9,3 C 14,4 C 17,8 C 78 % 1021,8 hPa 0,0 l/m 2 min 0 min 460 W/m 12,9 km/h (3 Bft) 94,00 %
05.05.2020 09:10 9,4 C 14,4 C 17,8 C 77 % 1021,8 hPa 0,0 l/m 2 min 0 min 453 W/m 9,7 km/h (2 Bft) 97,87 %
05.05.2020 09:12 9,6 C 13,3 C 16,7 C 77 % 1021,7 hPa 0,0 l/m 2 min 0 min 360 W/m 9,7 km/h (2 Bft) 97,14 %
05.05.2020 09:14 9,6 C 13,3 C 15,6 C 76 % 1021,6 hPa 0,0 l/m 2 min 0 min 343 W/m 6,4 km/h (2 Bft) 100,00 %
05.05.2020 09:16 9,7 C 13,3 C 17,2 C 75 % 1021,6 hPa 0,0 l/m 2 min 0 min 488 W/m 9,7 km/h (2 Bft) 95,74 %
05.05.2020 09:18 9,7 C 14,4 C 17,8 C 75 % 1021,7 hPa 0,0 l/m 2 min 0 min 519 W/m 6,4 km/h (2 Bft) 98,00 %
05.05.2020 09:20 9,8 C 14,4 C 18,9 C 75 % 1021,7 hPa 0,0 l/m 2 min 0 min 571 W/m 9,7 km/h (2 Bft) 95,74 %
05.05.2020 09:22 9,9 C 15,0 C 19,4 C 74 % 1021,6 hPa 0,0 l/m 2 min 0 min 574 W/m 6,4 km/h (2 Bft) 97,14 %
05.05.2020 09:24 10,0 C 15,0 C 20,0 C 74 % 1021,7 hPa 0,0 l/m 2 min 0 min 570 W/m 9,7 km/h (2 Bft) 100,00 %
05.05.2020 09:26 10,1 C 15,0 C 20,0 C 74 % 1021,7 hPa 0,0 l/m 2 min 0 min 554 W/m 3,2 km/h (1 Bft) 97,87 %
05.05.2020 09:28 10,2 C 15,0 C 19,4 C 74 % 1021,8 hPa 0,0 l/m 2 min 0 min 504 W/m 12,9 km/h (3 Bft) 98,00 %
05.05.2020 09:30 10,3 C 15,0 C 20,0 C 73 % 1021,7 hPa 0,0 l/m 2 min 0 min 565 W/m 9,7 km/h (2 Bft) 97,87 %
05.05.2020 09:32 10,3 C 14,4 C 19,4 C 73 % 1021,7 hPa 0,0 l/m 2 min 0 min 547 W/m 9,7 km/h (2 Bft) 100,00 %
05.05.2020 09:34 10,4 C 13,3 C 17,8 C 73 % 1021,7 hPa 0,0 l/m 2 min 0 min 371 W/m 6,4 km/h (2 Bft) 100,00 %
05.05.2020 09:36 10,4 C 13,3 C 16,7 C 73 % 1021,7 hPa 0,0 l/m 2 min 0 min 337 W/m 12,9 km/h (3 Bft) 98,18 %
05.05.2020 09:38 10,4 C 13,3 C 17,2 C 73 % 1021,7 hPa 0,0 l/m 2 min 0 min 408 W/m 9,7 km/h (2 Bft) 98,00 %
05.05.2020 09:40 10,5 C 13,3 C 16,7 C 72 % 1021,7 hPa 0,0 l/m 2 min 0 min 494 W/m 9,7 km/h (2 Bft) 100,00 %
05.05.2020 09:42 10,5 C 13,3 C 17,2 C 72 % 1021,8 hPa 0,0 l/m 2 min 0 min 468 W/m 6,4 km/h (2 Bft) 100,00 %
05.05.2020 09:44 10,6 C 15,0 C 18,3 C 72 % 1021,8 hPa 0,0 l/m 2 min 0 min 497 W/m 3,2 km/h (1 Bft) 97,87 %
05.05.2020 09:46 10,6 C 16,1 C 20,0 C 73 % 1021,8 hPa 0,0 l/m 2 min 0 min 646 W/m 12,9 km/h (3 Bft) 97,14 %
05.05.2020 09:48 10,8 C 15,6 C 20,0 C 72 % 1021,7 hPa 0,0 l/m 2 min 0 min 616 W/m 9,7 km/h (2 Bft) 96,36 %
05.05.2020 09:50 10,8 C 15,0 C 18,9 C 71 % 1021,7 hPa 0,0 l/m 2 min 0 min 524 W/m 6,4 km/h (2 Bft) 100,00 %
05.05.2020 09:52 10,9 C 14,4 C 18,3 C 71 % 1021,6 hPa 0,0 l/m 2 min 0 min 443 W/m 9,7 km/h (2 Bft) 100,00 %
05.05.2020 09:54 10,9 C 13,9 C 17,8 C 70 % 1021,6 hPa 0,0 l/m 2 min 0 min 420 W/m 3,2 km/h (1 Bft) 97,22 %
05.05.2020 09:56 10,9 C 13,9 C 17,2 C 69 % 1021,6 hPa 0,0 l/m 2 min 0 min 431 W/m 6,4 km/h (2 Bft) 95,65 %
05.05.2020 09:58 10,9 C 14,4 C 17,8 C 69 % 1021,7 hPa 0,0 l/m 2 min 0 min 470 W/m 6,4 km/h (2 Bft) 98,18 %
05.05.2020 10:00 10,9 C 15,0 C 18,3 C 69 % 1021,7 hPa 0,0 l/m 2 min 0 min 503 W/m 6,4 km/h (2 Bft) 100,00 %
05.05.2020 10:02 11,0 C 15,0 C 18,9 C 69 % 1021,8 hPa 0,0 l/m 2 min 0 min 465 W/m 6,4 km/h (2 Bft) 95,83 %
05.05.2020 10:04 11,1 C 15,6 C 20,0 C 67 % 1021,8 hPa 0,0 l/m 2 min 0 min 627 W/m 9,7 km/h (2 Bft) 100,00 %
05.05.2020 10:06 11,1 C 16,1 C 20,6 C 68 % 1021,9 hPa 0,0 l/m 2 min 0 min 611 W/m 9,7 km/h (2 Bft) 96,36 %
05.05.2020 10:08 11,2 C 15,6 C 20,0 C 67 % 1022,0 hPa 0,0 l/m 2 min 0 min 568 W/m 9,7 km/h (2 Bft) 100,00 %
05.05.2020 10:10 11,3 C 16,1 C 19,4 C 67 % 1021,9 hPa 0,0 l/m 2 min 0 min 583 W/m 3,2 km/h (1 Bft) 100,00 %
05.05.2020 10:12 11,3 C 15,6 C 19,4 C 67 % 1021,9 hPa 0,0 l/m 2 min 0 min 597 W/m 3,2 km/h (1 Bft) 97,92 %
05.05.2020 10:14 11,4 C 15,6 C 20,0 C 66 % 1021,9 hPa 0,0 l/m 2 min 0 min 520 W/m 3,2 km/h (1 Bft) 97,14 %
05.05.2020 10:16 11,5 C 16,1 C 20,0 C 66 % 1021,9 hPa 0,0 l/m 2 min 0 min 512 W/m 9,7 km/h (2 Bft) 98,18 %
05.05.2020 10:18 11,6 C 16,1 C 20,0 C 66 % 1021,9 hPa 0,0 l/m 2 min 0 min 601 W/m 6,4 km/h (2 Bft) 100,00 %
05.05.2020 10:20 11,6 C 16,7 C 20,0 C 66 % 1021,9 hPa 0,0 l/m 2 min 0 min 556 W/m 6,4 km/h (2 Bft) 100,00 %
05.05.2020 10:22 11,7 C 16,1 C 20,0 C 65 % 1021,9 hPa 0,0 l/m 2 min 0 min 618 W/m 6,4 km/h (2 Bft) 94,29 %
05.05.2020 10:24 11,8 C 16,1 C 20,0 C 65 % 1021,9 hPa 0,0 l/m 2 min 0 min 583 W/m 16,1 km/h (3 Bft) 98,18 %
05.05.2020 10:26 11,8 C 16,7 C 20,6 C 64 % 1021,8 hPa 0,0 l/m 2 min 0 min 568 W/m 6,4 km/h (2 Bft) 98,00 %
05.05.2020 10:28 11,9 C 16,7 C 21,1 C 64 % 1021,7 hPa 0,0 l/m 2 min 0 min 698 W/m 12,9 km/h (3 Bft) 100,00 %
05.05.2020 10:30 11,9 C 16,7 C 21,1 C 64 % 1021,7 hPa 0,0 l/m 2 min 0 min 685 W/m 6,4 km/h (2 Bft) 100,00 %
05.05.2020 10:32 12,1 C 16,7 C 20,6 C 64 % 1021,8 hPa 0,0 l/m 2 min 0 min 611 W/m 3,2 km/h (1 Bft) 97,87 %
05.05.2020 10:34 12,1 C 16,7 C 20,0 C 64 % 1021,9 hPa 0,0 l/m 2 min 0 min 664 W/m 6,4 km/h (2 Bft) 97,14 %
05.05.2020 10:36 12,2 C 17,2 C 20,6 C 63 % 1021,9 hPa 0,0 l/m 2 min 0 min 692 W/m 6,4 km/h (2 Bft) 96,36 %
05.05.2020 10:38 12,3 C 17,2 C 21,7 C 63 % 1021,9 hPa 0,0 l/m 2 min 0 min 710 W/m 6,4 km/h (2 Bft) 98,00 %
05.05.2020 10:40 12,3 C 16,7 C 20,6 C 62 % 1022,0 hPa 0,0 l/m 2 min 0 min 618 W/m 9,7 km/h (2 Bft) 97,87 %
05.05.2020 10:42 12,4 C 17,8 C 20,6 C 64 % 1021,9 hPa 0,0 l/m 2 min 0 min 638 W/m 3,2 km/h (1 Bft) 97,14 %
05.05.2020 10:44 12,5 C 17,8 C 21,1 C 62 % 1021,9 hPa 0,0 l/m 2 min 0 min 691 W/m 3,2 km/h (1 Bft) 97,87 %
05.05.2020 10:46 12,6 C 18,3 C 21,7 C 63 % 1021,8 hPa 0,0 l/m 2 min 0 min 791 W/m 12,9 km/h (3 Bft) 100,00 %
05.05.2020 10:48 12,7 C 18,3 C 21,7 C 64 % 1021,8 hPa 0,0 l/m 2 min 0 min 744 W/m 9,7 km/h (2 Bft) 98,00 %
05.05.2020 10:50 12,7 C 18,3 C 21,7 C 60 % 1021,8 hPa 0,0 l/m 2 min 0 min 745 W/m 6,4 km/h (2 Bft) 97,92 %
05.05.2020 10:52 12,8 C 18,3 C 21,7 C 61 % 1021,8 hPa 0,0 l/m 2 min 0 min 722 W/m 6,4 km/h (2 Bft) 94,29 %
05.05.2020 10:54 12,8 C 18,3 C 22,2 C 60 % 1021,8 hPa 0,0 l/m 2 min 0 min 764 W/m 9,7 km/h (2 Bft) 92,73 %
05.05.2020 10:56 12,9 C 18,9 C 22,2 C 60 % 1021,8 hPa 0,0 l/m 2 min 0 min 790 W/m 6,4 km/h (2 Bft) 93,88 %
05.05.2020 10:58 13,1 C 18,9 C 22,2 C 59 % 1021,9 hPa 0,0 l/m 2 min 0 min 780 W/m 12,9 km/h (3 Bft) 91,67 %
05.05.2020 11:00 13,1 C 18,9 C 21,7 C 59 % 1021,9 hPa 0,0 l/m 2 min 0 min 770 W/m 9,7 km/h (2 Bft) 97,14 %
05.05.2020 11:02 13,2 C 18,3 C 21,7 C 59 % 1021,8 hPa 0,0 l/m 2 min 0 min 788 W/m 12,9 km/h (3 Bft) 92,73 %
05.05.2020 11:04 13,3 C 18,9 C 21,1 C 59 % 1021,9 hPa 0,0 l/m 2 min 0 min 802 W/m 9,7 km/h (2 Bft) 94,00 %
05.05.2020 11:06 13,3 C 18,9 C 21,7 C 57 % 1021,8 hPa 0,0 l/m 2 min 0 min 781 W/m 9,7 km/h (2 Bft) 91,49 %
05.05.2020 11:08 13,4 C 20,0 C 20,6 C 60 % 1021,9 hPa 0,0 l/m 2 min 0 min 816 W/m 6,4 km/h (2 Bft) 100,00 %
05.05.2020 11:10 13,6 C 20,0 C 21,1 C 60 % 1021,9 hPa 0,0 l/m 2 min 0 min 831 W/m 6,4 km/h (2 Bft) 91,49 %
05.05.2020 11:12 13,7 C 20,0 C 20,0 C 58 % 1021,9 hPa 0,0 l/m 2 min 0 min 829 W/m 9,7 km/h (2 Bft) 90,91 %
05.05.2020 11:14 13,7 C 18,9 C 18,3 C 55 % 1021,9 hPa 0,0 l/m 2 min 0 min 803 W/m 9,7 km/h (2 Bft) 91,49 %
05.05.2020 11:16 13,8 C 18,9 C 17,8 C 55 % 1021,9 hPa 0,0 l/m 2 min 0 min 835 W/m 6,4 km/h (2 Bft) 94,00 %
05.05.2020 11:18 13,8 C 18,3 C 17,8 C 56 % 1021,8 hPa 0,0 l/m 2 min 0 min 823 W/m 9,7 km/h (2 Bft) 93,62 %
05.05.2020 11:20 13,8 C 18,3 C 17,2 C 55 % 1021,9 hPa 0,0 l/m 2 min 0 min 822 W/m 9,7 km/h (2 Bft) 91,43 %
05.05.2020 11:22 13,9 C 19,4 C 17,2 C 56 % 1021,8 hPa 0,0 l/m 2 min 0 min 838 W/m 3,2 km/h (1 Bft) 94,55 %
05.05.2020 11:24 13,9 C 19,4 C 16,7 C 55 % 1021,8 hPa 0,0 l/m 2 min 0 min 828 W/m 3,2 km/h (1 Bft) 92,00 %
05.05.2020 11:26 14,0 C 20,0 C 15,6 C 56 % 1021,8 hPa 0,0 l/m 2 min 0 min 825 W/m 12,9 km/h (3 Bft) 91,49 %
05.05.2020 11:28 14,1 C 18,9 C 15,6 C 56 % 1021,7 hPa 0,0 l/m 2 min 0 min 789 W/m 6,4 km/h (2 Bft) 91,67 %
05.05.2020 11:30 14,1 C 18,9 C 16,1 C 54 % 1021,7 hPa 0,0 l/m 2 min 0 min 824 W/m 9,7 km/h (2 Bft) 94,55 %
05.05.2020 11:32 14,2 C 18,9 C 18,3 C 55 % 1021,8 hPa 0,0 l/m 2 min 0 min 811 W/m 3,2 km/h (1 Bft) 93,88 %
05.05.2020 11:34 14,2 C 19,4 C 18,3 C 54 % 1021,9 hPa 0,0 l/m 2 min 0 min 844 W/m 9,7 km/h (2 Bft) 95,83 %
05.05.2020 11:36 14,3 C 18,9 C 17,2 C 53 % 1021,8 hPa 0,0 l/m 2 min 0 min 804 W/m 9,7 km/h (2 Bft) 95,65 %
05.05.2020 11:38 14,1 C 17,8 C 15,6 C 50 % 1021,7 hPa 0,0 l/m 2 min 0 min 806 W/m 12,9 km/h (3 Bft) 94,44 %
05.05.2020 11:40 14,1 C 17,8 C 16,1 C 51 % 1021,8 hPa 0,0 l/m 2 min 0 min 839 W/m 16,1 km/h (3 Bft) 98,18 %
05.05.2020 11:42 14,1 C 18,9 C 15,6 C 51 % 1021,8 hPa 0,0 l/m 2 min 0 min 853 W/m 9,7 km/h (2 Bft) 100,00 %
05.05.2020 11:44 14,1 C 19,4 C 16,1 C 51 % 1021,7 hPa 0,0 l/m 2 min 0 min 879 W/m 9,7 km/h (2 Bft) 97,92 %
05.05.2020 11:46 14,2 C 20,0 C 17,2 C 52 % 1021,7 hPa 0,0 l/m 2 min 0 min 852 W/m 6,4 km/h (2 Bft) 100,00 %
05.05.2020 11:48 14,3 C 20,0 C 17,2 C 53 % 1021,8 hPa 0,0 l/m 2 min 0 min 845 W/m 3,2 km/h (1 Bft) 98,18 %
05.05.2020 11:50 14,3 C 20,6 C 17,2 C 54 % 1021,8 hPa 0,0 l/m 2 min 0 min 883 W/m 9,7 km/h (2 Bft) 98,00 %
05.05.2020 11:52 14,3 C 20,6 C 16,1 C 52 % 1021,8 hPa 0,0 l/m 2 min 0 min 880 W/m 3,2 km/h (1 Bft) 97,87 %
05.05.2020 11:54 14,4 C 20,0 C 16,1 C 51 % 1021,7 hPa 0,0 l/m 2 min 0 min 883 W/m 6,4 km/h (2 Bft) 100,00 %
05.05.2020 11:56 14,4 C 20,0 C 17,2 C 50 % 1021,6 hPa 0,0 l/m 2 min 0 min 864 W/m 6,4 km/h (2 Bft) 100,00 %
05.05.2020 11:58 14,4 C 18,9 C 18,3 C 50 % 1021,6 hPa 0,0 l/m 2 min 0 min 851 W/m 12,9 km/h (3 Bft) 98,00 %
05.05.2020 12:00 14,3 C 17,8 C 17,2 C 46 % 1021,6 hPa 0,0 l/m 2 min 0 min 856 W/m 16,1 km/h (3 Bft) 100,00 %
05.05.2020 12:02 14,3 C 18,9 C 16,7 C 48 % 1021,7 hPa 0,0 l/m 2 min 0 min 870 W/m 12,9 km/h (3 Bft) 97,22 %
05.05.2020 12:04 14,3 C 19,4 C 16,1 C 50 % 1021,6 hPa 0,0 l/m 2 min 0 min 867 W/m 6,4 km/h (2 Bft) 98,18 %
05.05.2020 12:08 14,3 C 19,4 C 16,1 C 51 % 1021,6 hPa 0,0 l/m 4 min 0 min 815 W/m 6,4 km/h (2 Bft) 98,96 %
05.05.2020 12:10 14,4 C 19,4 C 16,7 C 50 % 1021,6 hPa 0,0 l/m 2 min 0 min 854 W/m 9,7 km/h (2 Bft) 100,00 %
05.05.2020 12:12 14,4 C 20,0 C 16,1 C 51 % 1021,6 hPa 0,0 l/m 2 min 0 min 858 W/m 6,4 km/h (2 Bft) 100,00 %
05.05.2020 12:14 14,5 C 19,4 C 16,1 C 48 % 1021,5 hPa 0,0 l/m 2 min 0 min 873 W/m 16,1 km/h (3 Bft) 97,87 %
05.05.2020 12:16 14,6 C 20,6 C 16,1 C 50 % 1021,5 hPa 0,0 l/m 2 min 0 min 890 W/m 3,2 km/h (1 Bft) 96,36 %
05.05.2020 12:18 14,7 C 21,1 C 17,2 C 52 % 1021,6 hPa 0,0 l/m 2 min 0 min 877 W/m 3,2 km/h (1 Bft) 97,96 %
05.05.2020 12:20 14,8 C 20,6 C 18,3 C 51 % 1021,6 hPa 0,0 l/m 2 min 0 min 879 W/m 12,9 km/h (3 Bft) 95,83 %
05.05.2020 12:22 14,8 C 20,0 C 17,2 C 49 % 1021,5 hPa 0,0 l/m 2 min 0 min 892 W/m 6,4 km/h (2 Bft) 97,14 %
05.05.2020 12:24 14,8 C 19,4 C 16,1 C 48 % 1021,5 hPa 0,0 l/m 2 min 0 min 825 W/m 9,7 km/h (2 Bft) 97,87 %
05.05.2020 12:26 14,8 C 20,0 C 16,1 C 49 % 1021,5 hPa 0,0 l/m 2 min 0 min 876 W/m 6,4 km/h (2 Bft) 96,36 %
05.05.2020 12:28 14,9 C 20,0 C 16,1 C 48 % 1021,5 hPa 0,0 l/m 2 min 0 min 913 W/m 9,7 km/h (2 Bft) 97,96 %
05.05.2020 12:30 14,9 C 19,4 C 16,7 C 47 % 1021,5 hPa 0,0 l/m 2 min 0 min 927 W/m 12,9 km/h (3 Bft) 95,83 %
05.05.2020 12:32 14,9 C 20,0 C 17,2 C 48 % 1021,5 hPa 0,0 l/m 2 min 0 min 882 W/m 9,7 km/h (2 Bft) 97,14 %
05.05.2020 12:34 15,1 C 21,1 C 17,8 C 53 % 1021,5 hPa 0,0 l/m 2 min 0 min 917 W/m 6,4 km/h (2 Bft) 98,18 %
05.05.2020 12:36 15,1 C 20,6 C 17,8 C 50 % 1021,6 hPa 0,0 l/m 2 min 0 min 936 W/m 9,7 km/h (2 Bft) 98,00 %
05.05.2020 12:38 15,2 C 20,6 C 17,2 C 47 % 1021,6 hPa 0,0 l/m 2 min 0 min 933 W/m 6,4 km/h (2 Bft) 95,74 %
05.05.2020 12:40 15,2 C 21,1 C 18,3 C 47 % 1021,6 hPa 0,0 l/m 2 min 0 min 927 W/m 3,2 km/h (1 Bft) 100,00 %
05.05.2020 12:42 15,3 C 22,2 C 20,0 C 51 % 1021,6 hPa 0,0 l/m 2 min 0 min 939 W/m 6,4 km/h (2 Bft) 96,36 %
05.05.2020 12:44 15,4 C 22,2 C 21,1 C 51 % 1021,6 hPa 0,0 l/m 2 min 0 min 939 W/m 9,7 km/h (2 Bft) 98,00 %
05.05.2020 12:46 15,6 C 22,2 C 21,7 C 50 % 1021,5 hPa 0,0 l/m 2 min 0 min 945 W/m 6,4 km/h (2 Bft) 97,87 %
05.05.2020 12:48 15,7 C 21,7 C 21,1 C 50 % 1021,6 hPa 0,0 l/m 2 min 0 min 944 W/m 6,4 km/h (2 Bft) 97,87 %
05.05.2020 12:50 15,7 C 21,7 C 21,1 C 49 % 1021,6 hPa 0,0 l/m 2 min 0 min 943 W/m 16,1 km/h (3 Bft) 97,14 %
05.05.2020 12:52 15,8 C 21,7 C 20,0 C 47 % 1021,6 hPa 0,0 l/m 2 min 0 min 943 W/m 6,4 km/h (2 Bft) 98,18 %
05.05.2020 12:54 15,8 C 21,7 C 20,0 C 49 % 1021,6 hPa 0,0 l/m 2 min 0 min 943 W/m 6,4 km/h (2 Bft) 98,00 %
05.05.2020 12:56 15,9 C 22,8 C 20,0 C 50 % 1021,6 hPa 0,0 l/m 2 min 0 min 947 W/m 0,0 km/h (0 Bft) 97,92 %
05.05.2020 12:58 16,1 C 22,8 C 19,4 C 49 % 1021,6 hPa 0,0 l/m 2 min 0 min 951 W/m 9,7 km/h (2 Bft) 97,14 %
05.05.2020 13:00 16,2 C 22,8 C 18,9 C 49 % 1021,6 hPa 0,0 l/m 2 min 0 min 952 W/m 6,4 km/h (2 Bft) 98,18 %
05.05.2020 13:02 16,3 C 22,2 C 20,0 C 47 % 1021,6 hPa 0,0 l/m 2 min 0 min 952 W/m 9,7 km/h (2 Bft) 97,87 %
05.05.2020 13:04 16,3 C 22,8 C 20,6 C 50 % 1021,6 hPa 0,0 l/m 2 min 0 min 951 W/m 9,7 km/h (2 Bft) 97,96 %
05.05.2020 13:06 16,4 C 22,8 C 21,1 C 49 % 1021,6 hPa 0,0 l/m 2 min 0 min 952 W/m 12,9 km/h (3 Bft) 97,92 %
05.05.2020 13:08 16,4 C 22,8 C 20,6 C 49 % 1021,6 hPa 0,0 l/m 2 min 0 min 958 W/m 9,7 km/h (2 Bft) 97,14 %
05.05.2020 13:10 16,6 C 23,3 C 20,0 C 48 % 1021,6 hPa 0,0 l/m 2 min 0 min 952 W/m 9,7 km/h (2 Bft) 97,87 %
05.05.2020 13:12 16,7 C 22,2 C 20,0 C 47 % 1021,5 hPa 0,0 l/m 2 min 0 min 953 W/m 12,9 km/h (3 Bft) 94,55 %
05.05.2020 13:14 16,7 C 21,7 C 20,0 C 46 % 1021,6 hPa 0,0 l/m 2 min 0 min 960 W/m 9,7 km/h (2 Bft) 97,96 %
05.05.2020 13:16 16,7 C 22,8 C 19,4 C 48 % 1021,7 hPa 0,0 l/m 2 min 0 min 961 W/m 3,2 km/h (1 Bft) 97,92 %
05.05.2020 13:18 16,8 C 22,8 C 20,0 C 49 % 1021,7 hPa 0,0 l/m 2 min 0 min 956 W/m 12,9 km/h (3 Bft) 97,87 %
05.05.2020 13:20 16,9 C 22,8 C 21,7 C 48 % 1021,8 hPa 0,0 l/m 2 min 0 min 956 W/m 6,4 km/h (2 Bft) 97,87 %
05.05.2020 13:22 16,9 C 22,2 C 22,8 C 47 % 1021,7 hPa 0,0 l/m 2 min 0 min 962 W/m 6,4 km/h (2 Bft) 97,14 %
05.05.2020 13:24 17,0 C 22,8 C 24,4 C 50 % 1021,7 hPa 0,0 l/m 2 min 0 min 961 W/m 6,4 km/h (2 Bft) 98,18 %
05.05.2020 13:26 17,1 C 22,2 C 25,6 C 47 % 1021,7 hPa 0,0 l/m 2 min 0 min 962 W/m 6,4 km/h (2 Bft) 97,87 %
05.05.2020 13:28 17,1 C 21,7 C 25,6 C 46 % 1021,7 hPa 0,0 l/m 2 min 0 min 963 W/m 9,7 km/h (2 Bft) 97,96 %
05.05.2020 13:30 17,0 C 21,7 C 25,6 C 45 % 1021,8 hPa 0,0 l/m 2 min 0 min 968 W/m 6,4 km/h (2 Bft) 95,83 %
05.05.2020 13:32 17,0 C 22,2 C 26,7 C 47 % 1021,8 hPa 0,0 l/m 2 min 0 min 967 W/m 6,4 km/h (2 Bft) 94,29 %
05.05.2020 13:34 16,9 C 22,2 C 27,2 C 47 % 1021,8 hPa 0,0 l/m 2 min 0 min 966 W/m 9,7 km/h (2 Bft) 93,62 %
05.05.2020 13:36 16,9 C 22,2 C 27,8 C 47 % 1021,8 hPa 0,0 l/m 2 min 0 min 961 W/m 3,2 km/h (1 Bft) 96,36 %
05.05.2020 13:38 17,0 C 22,8 C 28,3 C 49 % 1021,8 hPa 0,0 l/m 2 min 0 min 959 W/m 9,7 km/h (2 Bft) 95,92 %
05.05.2020 13:40 17,1 C 22,8 C 28,3 C 47 % 1021,8 hPa 0,0 l/m 2 min 0 min 958 W/m 6,4 km/h (2 Bft) 95,74 %
05.05.2020 13:42 17,1 C 22,2 C 27,8 C 48 % 1021,7 hPa 0,0 l/m 2 min 0 min 950 W/m 9,7 km/h (2 Bft) 91,67 %
05.05.2020 13:44 17,1 C 22,8 C 28,3 C 48 % 1021,7 hPa 0,0 l/m 2 min 0 min 954 W/m 9,7 km/h (2 Bft) 100,00 %
05.05.2020 13:46 17,1 C 22,8 C 28,3 C 50 % 1021,6 hPa 0,0 l/m 2 min 0 min 952 W/m 9,7 km/h (2 Bft) 94,55 %
05.05.2020 13:48 17,1 C 22,8 C 28,3 C 47 % 1021,6 hPa 0,0 l/m 2 min 0 min 958 W/m 6,4 km/h (2 Bft) 96,00 %
05.05.2020 13:50 17,2 C 22,2 C 27,8 C 48 % 1021,6 hPa 0,0 l/m 2 min 0 min 959 W/m 9,7 km/h (2 Bft) 95,74 %
05.05.2020 13:52 17,2 C 22,8 C 27,8 C 47 % 1021,7 hPa 0,0 l/m 2 min 0 min 960 W/m 6,4 km/h (2 Bft) 88,57 %
05.05.2020 13:54 17,1 C 21,1 C 27,2 C 45 % 1021,6 hPa 0,0 l/m 2 min 0 min 956 W/m 12,9 km/h (3 Bft) 94,55 %
05.05.2020 13:56 17,1 C 21,7 C 27,2 C 47 % 1021,6 hPa 0,0 l/m 2 min 0 min 958 W/m 16,1 km/h (3 Bft) 94,00 %
05.05.2020 13:58 17,1 C 21,7 C 26,7 C 48 % 1021,5 hPa 0,0 l/m 2 min 0 min 959 W/m 6,4 km/h (2 Bft) 92,00 %
05.05.2020 14:00 17,1 C 21,7 C 26,7 C 48 % 1021,6 hPa 0,0 l/m 2 min 0 min 952 W/m 6,4 km/h (2 Bft) 93,48 %
05.05.2020 14:02 17,1 C 21,1 C 26,7 C 46 % 1021,5 hPa 0,0 l/m 2 min 0 min 946 W/m 9,7 km/h (2 Bft) 89,19 %
05.05.2020 14:04 17,1 C 21,7 C 27,2 C 48 % 1021,5 hPa 0,0 l/m 2 min 0 min 954 W/m 6,4 km/h (2 Bft) 93,75 %
05.05.2020 14:06 17,1 C 21,7 C 26,7 C 48 % 1021,5 hPa 0,0 l/m 2 min 0 min 956 W/m 6,4 km/h (2 Bft) 94,34 %
05.05.2020 14:08 17,0 C 21,7 C 24,4 C 47 % 1021,4 hPa 0,0 l/m 2 min 0 min 953 W/m 12,9 km/h (3 Bft) 94,00 %
05.05.2020 14:10 17,0 C 22,2 C 23,9 C 48 % 1021,4 hPa 0,0 l/m 2 min 0 min 953 W/m 16,1 km/h (3 Bft) 93,62 %
05.05.2020 14:12 17,1 C 22,8 C 25,6 C 47 % 1021,4 hPa 0,0 l/m 2 min 0 min 953 W/m 6,4 km/h (2 Bft) 91,89 %
05.05.2020 14:14 17,1 C 22,8 C 26,7 C 48 % 1021,4 hPa 0,0 l/m 2 min 0 min 954 W/m 3,2 km/h (1 Bft) 95,74 %
05.05.2020 14:16 17,1 C 22,8 C 27,2 C 48 % 1021,3 hPa 0,0 l/m 2 min 0 min 951 W/m 9,7 km/h (2 Bft) 98,11 %
05.05.2020 14:18 17,2 C 22,8 C 27,2 C 48 % 1021,3 hPa 0,0 l/m 2 min 0 min 944 W/m 3,2 km/h (1 Bft) 96,00 %
05.05.2020 14:20 17,2 C 22,2 C 25,6 C 47 % 1021,4 hPa 0,0 l/m 2 min 0 min 941 W/m 9,7 km/h (2 Bft) 94,74 %
05.05.2020 14:22 17,2 C 22,2 C 25,0 C 47 % 1021,3 hPa 0,0 l/m 2 min 0 min 942 W/m 6,4 km/h (2 Bft) 97,83 %
05.05.2020 14:24 17,2 C 22,2 C 23,9 C 48 % 1021,3 hPa 0,0 l/m 2 min 0 min 937 W/m 9,7 km/h (2 Bft) 98,11 %
05.05.2020 14:26 17,2 C 22,8 C 24,4 C 49 % 1021,3 hPa 0,0 l/m 2 min 0 min 940 W/m 3,2 km/h (1 Bft) 96,00 %
05.05.2020 14:28 17,2 C 22,2 C 23,9 C 47 % 1021,3 hPa 0,0 l/m 2 min 0 min 934 W/m 9,7 km/h (2 Bft) 100,00 %
05.05.2020 14:30 17,2 C 22,2 C 22,2 C 47 % 1021,3 hPa 0,0 l/m 2 min 0 min 939 W/m 6,4 km/h (2 Bft) 97,87 %
05.05.2020 14:32 17,3 C 22,8 C 22,2 C 49 % 1021,4 hPa 0,0 l/m 2 min 0 min 928 W/m 6,4 km/h (2 Bft) 97,87 %
05.05.2020 14:34 17,3 C 22,2 C 22,2 C 47 % 1021,4 hPa 0,0 l/m 2 min 0 min 930 W/m 9,7 km/h (2 Bft) 96,23 %
05.05.2020 14:36 17,3 C 22,8 C 21,1 C 46 % 1021,2 hPa 0,0 l/m 2 min 0 min 926 W/m 6,4 km/h (2 Bft) 97,96 %
05.05.2020 14:38 17,3 C 22,2 C 20,0 C 47 % 1021,3 hPa 0,0 l/m 2 min 0 min 925 W/m 9,7 km/h (2 Bft) 97,37 %
05.05.2020 14:40 17,4 C 22,8 C 19,4 C 48 % 1021,3 hPa 0,0 l/m 2 min 0 min 924 W/m 9,7 km/h (2 Bft) 100,00 %
05.05.2020 14:42 17,4 C 21,7 C 18,9 C 47 % 1021,3 hPa 0,0 l/m 2 min 0 min 921 W/m 16,1 km/h (3 Bft) 100,00 %
05.05.2020 14:44 17,3 C 21,7 C 18,3 C 46 % 1021,3 hPa 0,0 l/m 2 min 0 min 925 W/m 6,4 km/h (2 Bft) 100,00 %
05.05.2020 14:46 17,3 C 21,7 C 17,8 C 44 % 1021,3 hPa 0,0 l/m 2 min 0 min 924 W/m 9,7 km/h (2 Bft) 100,00 %
05.05.2020 14:48 17,2 C 21,7 C 17,2 C 46 % 1021,2 hPa 0,0 l/m 2 min 0 min 919 W/m 9,7 km/h (2 Bft) 97,96 %
05.05.2020 14:50 17,2 C 21,7 C 17,2 C 47 % 1021,2 hPa 0,0 l/m 2 min 0 min 913 W/m 12,9 km/h (3 Bft) 100,00 %
05.05.2020 14:52 17,2 C 21,7 C 17,2 C 47 % 1021,3 hPa 0,0 l/m 2 min 0 min 905 W/m 6,4 km/h (2 Bft) 97,87 %
05.05.2020 14:54 17,2 C 21,7 C 17,8 C 48 % 1021,2 hPa 0,0 l/m 2 min 0 min 899 W/m 16,1 km/h (3 Bft) 100,00 %
05.05.2020 14:56 17,2 C 21,7 C 17,8 C 47 % 1021,3 hPa 0,0 l/m 2 min 0 min 907 W/m 9,7 km/h (2 Bft) 98,00 %
05.05.2020 14:58 17,2 C 22,2 C 17,8 C 50 % 1021,3 hPa 0,0 l/m 2 min 0 min 895 W/m 3,2 km/h (1 Bft) 100,00 %
05.05.2020 15:00 17,2 C 21,7 C 17,8 C 48 % 1021,2 hPa 0,0 l/m 2 min 0 min 897 W/m 12,9 km/h (3 Bft) 100,00 %
05.05.2020 15:02 17,2 C 21,7 C 17,2 C 47 % 1021,2 hPa 0,0 l/m 2 min 0 min 892 W/m 6,4 km/h (2 Bft) 97,87 %
05.05.2020 15:04 17,2 C 21,1 C 17,2 C 47 % 1021,2 hPa 0,0 l/m 2 min 0 min 890 W/m 6,4 km/h (2 Bft) 100,00 %
05.05.2020 15:06 17,2 C 22,2 C 17,2 C 49 % 1021,2 hPa 0,0 l/m 2 min 0 min 893 W/m 3,2 km/h (1 Bft) 100,00 %
05.05.2020 15:08 17,2 C 21,7 C 17,2 C 47 % 1021,3 hPa 0,0 l/m 2 min 0 min 886 W/m 16,1 km/h (3 Bft) 100,00 %
05.05.2020 15:10 17,2 C 22,2 C 17,2 C 49 % 1021,3 hPa 0,0 l/m 2 min 0 min 878 W/m 6,4 km/h (2 Bft) 100,00 %
05.05.2020 15:12 17,2 C 21,1 C 17,2 C 46 % 1021,2 hPa 0,0 l/m 2 min 0 min 885 W/m 16,1 km/h (3 Bft) 100,00 %
05.05.2020 15:14 17,2 C 20,6 C 16,7 C 44 % 1021,2 hPa 0,0 l/m 2 min 0 min 886 W/m 12,9 km/h (3 Bft) 100,00 %
05.05.2020 15:16 17,1 C 20,0 C 16,7 C 44 % 1021,2 hPa 0,0 l/m 2 min 0 min 880 W/m 9,7 km/h (2 Bft) 100,00 %
05.05.2020 15:18 17,0 C 20,0 C 16,7 C 42 % 1021,2 hPa 0,0 l/m 2 min 0 min 881 W/m 12,9 km/h (3 Bft) 100,00 %
05.05.2020 15:20 16,9 C 20,6 C 16,7 C 45 % 1021,2 hPa 0,0 l/m 2 min 0 min 875 W/m 6,4 km/h (2 Bft) 97,83 %
05.05.2020 15:22 16,9 C 21,1 C 17,2 C 46 % 1021,2 hPa 0,0 l/m 2 min 0 min 873 W/m 16,1 km/h (3 Bft) 100,00 %
05.05.2020 15:24 16,9 C 21,1 C 17,2 C 49 % 1021,1 hPa 0,0 l/m 2 min 0 min 868 W/m 0,0 km/h (0 Bft) 100,00 %
05.05.2020 15:26 16,9 C 20,6 C 16,7 C 46 % 1021,1 hPa 0,0 l/m 2 min 0 min 862 W/m 12,9 km/h (3 Bft) 100,00 %
05.05.2020 15:28 16,9 C 21,1 C 16,7 C 48 % 1021,2 hPa 0,0 l/m 2 min 0 min 860 W/m 12,9 km/h (3 Bft) 100,00 %
05.05.2020 15:30 17,0 C 22,2 C 17,2 C 48 % 1021,1 hPa 0,0 l/m 2 min 0 min 851 W/m 9,7 km/h (2 Bft) 100,00 %
05.05.2020 15:32 17,1 C 21,7 C 16,7 C 49 % 1021,1 hPa 0,0 l/m 2 min 0 min 848 W/m 19,3 km/h (3 Bft) 100,00 %
05.05.2020 15:34 17,1 C 22,2 C 17,2 C 50 % 1021,1 hPa 0,0 l/m 2 min 0 min 847 W/m 9,7 km/h (2 Bft) 100,00 %
05.05.2020 15:36 17,2 C 22,2 C 17,2 C 50 % 1021,1 hPa 0,0 l/m 2 min 0 min 837 W/m 6,4 km/h (2 Bft) 100,00 %
05.05.2020 15:38 17,3 C 22,8 C 17,2 C 50 % 1021,1 hPa 0,0 l/m 2 min 0 min 836 W/m 3,2 km/h (1 Bft) 97,87 %
05.05.2020 15:40 17,4 C 22,2 C 17,2 C 48 % 1021,1 hPa 0,0 l/m 2 min 0 min 830 W/m 16,1 km/h (3 Bft) 100,00 %
05.05.2020 15:42 17,4 C 21,1 C 17,2 C 47 % 1021,0 hPa 0,0 l/m 2 min 0 min 825 W/m 9,7 km/h (2 Bft) 97,87 %
05.05.2020 15:44 17,4 C 21,7 C 17,2 C 48 % 1021,0 hPa 0,0 l/m 2 min 0 min 833 W/m 6,4 km/h (2 Bft) 100,00 %
05.05.2020 15:46 17,4 C 22,2 C 17,2 C 49 % 1021,1 hPa 0,0 l/m 2 min 0 min 836 W/m 12,9 km/h (3 Bft) 97,87 %
05.05.2020 15:48 17,6 C 22,2 C 17,2 C 48 % 1021,1 hPa 0,0 l/m 2 min 0 min 828 W/m 3,2 km/h (1 Bft) 98,11 %
05.05.2020 15:50 17,6 C 21,7 C 16,7 C 45 % 1021,1 hPa 0,0 l/m 2 min 0 min 824 W/m 6,4 km/h (2 Bft) 98,00 %
05.05.2020 15:52 17,6 C 21,1 C 16,7 C 45 % 1021,0 hPa 0,0 l/m 2 min 0 min 814 W/m 6,4 km/h (2 Bft) 97,87 %
05.05.2020 15:54 17,6 C 21,1 C 16,1 C 47 % 1021,0 hPa 0,0 l/m 2 min 0 min 812 W/m 6,4 km/h (2 Bft) 97,37 %
05.05.2020 15:56 17,6 C 21,1 C 16,7 C 46 % 1021,0 hPa 0,0 l/m 2 min 0 min 810 W/m 3,2 km/h (1 Bft) 97,83 %
05.05.2020 15:58 17,6 C 21,7 C 16,7 C 48 % 1021,1 hPa 0,0 l/m 2 min 0 min 804 W/m 6,4 km/h (2 Bft) 98,11 %
05.05.2020 16:00 17,6 C 21,1 C 16,7 C 46 % 1021,1 hPa 0,0 l/m 2 min 0 min 798 W/m 9,7 km/h (2 Bft) 96,00 %
05.05.2020 16:02 17,5 C 21,1 C 16,7 C 47 % 1021,1 hPa 0,0 l/m 2 min 0 min 796 W/m 9,7 km/h (2 Bft) 97,37 %
05.05.2020 16:04 17,6 C 21,1 C 17,2 C 48 % 1021,1 hPa 0,0 l/m 2 min 0 min 788 W/m 12,9 km/h (3 Bft) 95,74 %
05.05.2020 16:06 17,5 C 21,1 C 17,2 C 47 % 1021,1 hPa 0,0 l/m 2 min 0 min 783 W/m 9,7 km/h (2 Bft) 98,11 %
05.05.2020 16:08 17,5 C 20,6 C 16,7 C 45 % 1021,1 hPa 0,0 l/m 2 min 0 min 777 W/m 12,9 km/h (3 Bft) 97,87 %
05.05.2020 16:10 17,5 C 20,6 C 17,2 C 47 % 1021,1 hPa 0,0 l/m 2 min 0 min 772 W/m 9,7 km/h (2 Bft) 97,96 %
05.05.2020 16:12 17,5 C 20,6 C 17,2 C 47 % 1021,1 hPa 0,0 l/m 2 min 0 min 769 W/m 16,1 km/h (3 Bft) 95,74 %
05.05.2020 16:14 17,5 C 21,7 C 17,2 C 48 % 1021,1 hPa 0,0 l/m 2 min 0 min 762 W/m 9,7 km/h (2 Bft) 100,00 %
05.05.2020 16:16 17,6 C 22,2 C 17,2 C 49 % 1021,1 hPa 0,0 l/m 2 min 0 min 762 W/m 3,2 km/h (1 Bft) 97,87 %
05.05.2020 16:18 17,7 C 22,2 C 16,7 C 50 % 1021,1 hPa 0,0 l/m 2 min 0 min 757 W/m 12,9 km/h (3 Bft) 96,23 %
05.05.2020 16:20 17,7 C 22,2 C 16,7 C 49 % 1021,1 hPa 0,0 l/m 2 min 0 min 750 W/m 3,2 km/h (1 Bft) 97,96 %
05.05.2020 16:22 17,8 C 21,7 C 17,8 C 48 % 1021,1 hPa 0,0 l/m 2 min 0 min 746 W/m 9,7 km/h (2 Bft) 95,74 %
05.05.2020 16:24 17,8 C 21,1 C 18,3 C 47 % 1021,1 hPa 0,0 l/m 2 min 0 min 743 W/m 9,7 km/h (2 Bft) 97,37 %
05.05.2020 16:26 17,8 C 21,1 C 17,8 C 46 % 1021,1 hPa 0,0 l/m 2 min 0 min 737 W/m 12,9 km/h (3 Bft) 97,87 %
05.05.2020 16:28 17,8 C 21,1 C 17,8 C 47 % 1021,1 hPa 0,0 l/m 2 min 0 min 732 W/m 3,2 km/h (1 Bft) 98,11 %
05.05.2020 16:30 17,8 C 21,1 C 17,2 C 47 % 1021,1 hPa 0,0 l/m 2 min 0 min 734 W/m 6,4 km/h (2 Bft) 98,00 %
05.05.2020 16:32 17,8 C 20,6 C 17,2 C 47 % 1021,0 hPa 0,0 l/m 2 min 0 min 730 W/m 3,2 km/h (1 Bft) 100,00 %
05.05.2020 16:34 17,7 C 20,6 C 16,7 C 44 % 1021,1 hPa 0,0 l/m 2 min 0 min 724 W/m 0,0 km/h (0 Bft) 100,00 %
05.05.2020 16:36 17,7 C 20,6 C 16,7 C 47 % 1021,1 hPa 0,0 l/m 2 min 0 min 717 W/m 0,0 km/h (0 Bft) 94,34 %
05.05.2020 16:38 17,7 C 21,1 C 16,7 C 47 % 1021,1 hPa 0,0 l/m 2 min 0 min 710 W/m 0,0 km/h (0 Bft) 96,00 %
05.05.2020 16:40 17,7 C 22,2 C 17,2 C 50 % 1021,1 hPa 0,0 l/m 2 min 0 min 708 W/m 0,0 km/h (0 Bft) 97,37 %
05.05.2020 16:42 17,7 C 21,1 C 16,7 C 46 % 1021,1 hPa 0,0 l/m 2 min 0 min 703 W/m 16,1 km/h (3 Bft) 97,83 %
05.05.2020 16:44 17,7 C 20,6 C 16,7 C 46 % 1021,0 hPa 0,0 l/m 2 min 0 min 694 W/m 3,2 km/h (1 Bft) 96,23 %
05.05.2020 16:46 17,7 C 21,1 C 16,7 C 47 % 1021,0 hPa 0,0 l/m 2 min 0 min 687 W/m 3,2 km/h (1 Bft) 96,00 %
05.05.2020 16:48 17,7 C 21,1 C 17,2 C 47 % 1021,0 hPa 0,0 l/m 2 min 0 min 677 W/m 6,4 km/h (2 Bft) 94,74 %
05.05.2020 16:50 17,8 C 21,1 C 16,7 C 48 % 1021,0 hPa 0,0 l/m 2 min 0 min 672 W/m 9,7 km/h (2 Bft) 97,87 %
05.05.2020 16:52 17,8 C 21,1 C 16,7 C 47 % 1021,0 hPa 0,0 l/m 2 min 0 min 663 W/m 6,4 km/h (2 Bft) 97,87 %
05.05.2020 16:54 17,8 C 21,1 C 17,2 C 49 % 1021,0 hPa 0,0 l/m 2 min 0 min 666 W/m 9,7 km/h (2 Bft) 98,11 %
05.05.2020 16:56 17,9 C 21,7 C 16,7 C 47 % 1021,0 hPa 0,0 l/m 2 min 0 min 665 W/m 6,4 km/h (2 Bft) 93,88 %
05.05.2020 16:58 17,9 C 20,6 C 16,7 C 47 % 1021,0 hPa 0,0 l/m 2 min 0 min 663 W/m 3,2 km/h (1 Bft) 95,74 %
05.05.2020 17:00 17,9 C 21,1 C 17,2 C 46 % 1020,9 hPa 0,0 l/m 2 min 0 min 653 W/m 6,4 km/h (2 Bft) 97,37 %
05.05.2020 17:02 17,9 C 20,6 C 17,8 C 47 % 1020,8 hPa 0,0 l/m 2 min 0 min 646 W/m 12,9 km/h (3 Bft) 93,62 %
05.05.2020 17:04 17,8 C 20,6 C 17,8 C 47 % 1021,0 hPa 0,0 l/m 2 min 0 min 642 W/m 12,9 km/h (3 Bft) 96,23 %
05.05.2020 17:06 17,9 C 20,6 C 17,8 C 48 % 1021,0 hPa 0,0 l/m 2 min 0 min 639 W/m 6,4 km/h (2 Bft) 95,74 %
05.05.2020 17:08 17,9 C 20,0 C 17,2 C 45 % 1020,9 hPa 0,0 l/m 2 min 0 min 629 W/m 12,9 km/h (3 Bft) 93,88 %
05.05.2020 17:10 17,8 C 20,6 C 17,2 C 47 % 1021,0 hPa 0,0 l/m 2 min 0 min 619 W/m 6,4 km/h (2 Bft) 95,74 %
05.05.2020 17:12 17,8 C 20,0 C 17,2 C 45 % 1020,9 hPa 0,0 l/m 2 min 0 min 610 W/m 6,4 km/h (2 Bft) 97,37 %
05.05.2020 17:14 17,8 C 20,0 C 16,7 C 46 % 1020,9 hPa 0,0 l/m 2 min 0 min 609 W/m 3,2 km/h (1 Bft) 93,62 %
05.05.2020 17:16 17,8 C 19,4 C 16,1 C 43 % 1020,9 hPa 0,0 l/m 2 min 0 min 603 W/m 9,7 km/h (2 Bft) 96,23 %
05.05.2020 17:18 17,7 C 19,4 C 16,1 C 44 % 1020,9 hPa 0,0 l/m 2 min 0 min 605 W/m 6,4 km/h (2 Bft) 95,92 %
05.05.2020 17:20 17,6 C 19,4 C 16,1 C 45 % 1020,9 hPa 0,0 l/m 2 min 0 min 598 W/m 9,7 km/h (2 Bft) 94,74 %
05.05.2020 17:22 17,6 C 20,6 C 16,1 C 48 % 1020,9 hPa 0,0 l/m 2 min 0 min 591 W/m 3,2 km/h (1 Bft) 97,87 %
05.05.2020 17:24 17,6 C 20,0 C 16,1 C 47 % 1020,9 hPa 0,0 l/m 2 min 0 min 586 W/m 9,7 km/h (2 Bft) 96,23 %
05.05.2020 17:26 17,6 C 19,4 C 16,1 C 45 % 1020,9 hPa 0,0 l/m 2 min 0 min 576 W/m 9,7 km/h (2 Bft) 93,62 %
05.05.2020 17:28 17,6 C 20,0 C 16,1 C 47 % 1020,9 hPa 0,0 l/m 2 min 0 min 568 W/m 3,2 km/h (1 Bft) 94,00 %
05.05.2020 17:30 17,6 C 20,6 C 16,1 C 48 % 1020,8 hPa 0,0 l/m 2 min 0 min 568 W/m 3,2 km/h (1 Bft) 97,30 %
05.05.2020 17:32 17,5 C 20,0 C 15,6 C 44 % 1020,8 hPa 0,0 l/m 2 min 0 min 561 W/m 6,4 km/h (2 Bft) 97,87 %
05.05.2020 17:34 17,5 C 19,4 C 15,6 C 46 % 1020,8 hPa 0,0 l/m 2 min 0 min 555 W/m 6,4 km/h (2 Bft) 94,34 %
05.05.2020 17:36 17,5 C 19,4 C 15,6 C 46 % 1020,8 hPa 0,0 l/m 2 min 0 min 549 W/m 12,9 km/h (3 Bft) 97,87 %
05.05.2020 17:38 17,4 C 19,4 C 15,6 C 46 % 1020,9 hPa 0,0 l/m 2 min 0 min 542 W/m 6,4 km/h (2 Bft) 97,87 %
05.05.2020 17:40 17,4 C 19,4 C 15,0 C 47 % 1020,9 hPa 0,0 l/m 2 min 0 min 536 W/m 6,4 km/h (2 Bft) 96,00 %
05.05.2020 17:42 17,4 C 18,9 C 15,0 C 46 % 1020,8 hPa 0,0 l/m 2 min 0 min 536 W/m 9,7 km/h (2 Bft) 94,59 %
05.05.2020 17:44 17,4 C 18,9 C 15,0 C 47 % 1020,8 hPa 0,0 l/m 2 min 0 min 526 W/m 6,4 km/h (2 Bft) 95,74 %
05.05.2020 17:46 17,4 C 18,9 C 15,0 C 46 % 1020,8 hPa 0,0 l/m 2 min 0 min 519 W/m 6,4 km/h (2 Bft) 98,11 %
05.05.2020 17:48 17,4 C 19,4 C 15,0 C 48 % 1020,8 hPa 0,0 l/m 2 min 0 min 509 W/m 6,4 km/h (2 Bft) 98,00 %
05.05.2020 17:50 17,4 C 19,4 C 15,0 C 47 % 1020,8 hPa 0,0 l/m 2 min 0 min 505 W/m 9,7 km/h (2 Bft) 97,37 %
05.05.2020 17:52 17,3 C 18,9 C 15,0 C 46 % 1020,9 hPa 0,0 l/m 2 min 0 min 500 W/m 9,7 km/h (2 Bft) 97,83 %
05.05.2020 17:54 17,3 C 18,9 C 15,6 C 47 % 1020,8 hPa 0,0 l/m 2 min 0 min 495 W/m 9,7 km/h (2 Bft) 96,23 %
05.05.2020 17:56 17,3 C 19,4 C 16,1 C 47 % 1020,8 hPa 0,0 l/m 2 min 0 min 492 W/m 6,4 km/h (2 Bft) 98,00 %
05.05.2020 17:58 17,3 C 18,9 C 16,1 C 47 % 1020,8 hPa 0,0 l/m 2 min 0 min 486 W/m 9,7 km/h (2 Bft) 100,00 %
05.05.2020 18:00 17,3 C 18,9 C 15,6 C 47 % 1020,8 hPa 0,0 l/m 2 min 0 min 480 W/m 12,9 km/h (3 Bft) 100,00 %
05.05.2020 18:02 17,3 C 18,9 C 15,6 C 47 % 1020,8 hPa 0,0 l/m 2 min 0 min 472 W/m 6,4 km/h (2 Bft) 100,00 %
05.05.2020 18:04 17,3 C 18,9 C 15,0 C 46 % 1020,8 hPa 0,0 l/m 2 min 0 min 466 W/m 9,7 km/h (2 Bft) 100,00 %
05.05.2020 18:08 17,3 C 18,3 C 14,4 C 46 % 1020,8 hPa 0,0 l/m 4 min 0 min 456 W/m 12,9 km/h (3 Bft) 100,00 %
05.05.2020 18:10 17,3 C 18,3 C 14,4 C 46 % 1020,8 hPa 0,0 l/m 2 min 0 min 443 W/m 6,4 km/h (2 Bft) 100,00 %
05.05.2020 18:12 17,3 C 18,3 C 13,9 C 45 % 1020,8 hPa 0,0 l/m 2 min 0 min 434 W/m 6,4 km/h (2 Bft) 100,00 %
05.05.2020 18:14 17,3 C 18,3 C 13,9 C 46 % 1020,8 hPa 0,0 l/m 2 min 0 min 426 W/m 6,4 km/h (2 Bft) 100,00 %
05.05.2020 18:16 17,3 C 18,3 C 13,9 C 47 % 1020,8 hPa 0,0 l/m 2 min 0 min 425 W/m 3,2 km/h (1 Bft) 97,87 %
05.05.2020 18:18 17,3 C 18,3 C 13,9 C 46 % 1020,8 hPa 0,0 l/m 2 min 0 min 421 W/m 9,7 km/h (2 Bft) 95,92 %
05.05.2020 18:20 17,2 C 17,8 C 13,9 C 46 % 1020,8 hPa 0,0 l/m 2 min 0 min 412 W/m 6,4 km/h (2 Bft) 100,00 %
05.05.2020 18:22 17,2 C 17,8 C 13,9 C 48 % 1020,8 hPa 0,0 l/m 2 min 0 min 409 W/m 3,2 km/h (1 Bft) 95,74 %
05.05.2020 18:24 17,1 C 17,8 C 13,9 C 47 % 1020,9 hPa 0,0 l/m 2 min 0 min 402 W/m 3,2 km/h (1 Bft) 97,87 %
05.05.2020 18:26 17,1 C 17,2 C 13,9 C 46 % 1020,9 hPa 0,0 l/m 2 min 0 min 396 W/m 6,4 km/h (2 Bft) 98,11 %
05.05.2020 18:28 17,1 C 17,2 C 13,3 C 46 % 1020,9 hPa 0,0 l/m 2 min 0 min 387 W/m 6,4 km/h (2 Bft) 97,96 %
05.05.2020 18:30 17,1 C 17,2 C 13,3 C 45 % 1020,8 hPa 0,0 l/m 2 min 0 min 381 W/m 6,4 km/h (2 Bft) 97,37 %
05.05.2020 18:32 16,9 C 16,7 C 13,3 C 45 % 1020,8 hPa 0,0 l/m 2 min 0 min 374 W/m 19,3 km/h (3 Bft) 97,87 %
05.05.2020 18:34 16,8 C 16,7 C 13,3 C 46 % 1020,8 hPa 0,0 l/m 2 min 0 min 368 W/m 9,7 km/h (2 Bft) 98,11 %
05.05.2020 18:36 16,8 C 16,7 C 13,3 C 47 % 1020,8 hPa 0,0 l/m 2 min 0 min 360 W/m 6,4 km/h (2 Bft) 96,00 %
05.05.2020 18:38 16,7 C 16,7 C 13,3 C 47 % 1020,8 hPa 0,0 l/m 2 min 0 min 356 W/m 6,4 km/h (2 Bft) 97,87 %
05.05.2020 18:40 16,7 C 16,7 C 13,3 C 47 % 1020,8 hPa 0,0 l/m 2 min 0 min 352 W/m 9,7 km/h (2 Bft) 97,83 %
05.05.2020 18:42 16,6 C 16,7 C 13,3 C 48 % 1020,8 hPa 0,0 l/m 2 min 0 min 347 W/m 6,4 km/h (2 Bft) 97,87 %
05.05.2020 18:44 16,6 C 16,7 C 12,8 C 47 % 1020,9 hPa 0,0 l/m 2 min 0 min 339 W/m 9,7 km/h (2 Bft) 97,37 %
05.05.2020 18:46 16,6 C 16,1 C 12,8 C 47 % 1020,9 hPa 0,0 l/m 2 min 0 min 332 W/m 12,9 km/h (3 Bft) 97,87 %
05.05.2020 18:48 16,5 C 16,1 C 12,8 C 46 % 1020,8 hPa 0,0 l/m 2 min 0 min 326 W/m 6,4 km/h (2 Bft) 98,11 %
05.05.2020 18:50 16,5 C 16,1 C 12,8 C 47 % 1020,8 hPa 0,0 l/m 2 min 0 min 318 W/m 3,2 km/h (1 Bft) 98,00 %
05.05.2020 18:52 16,4 C 16,1 C 12,8 C 47 % 1020,8 hPa 0,0 l/m 2 min 0 min 312 W/m 6,4 km/h (2 Bft) 97,30 %
05.05.2020 18:54 16,4 C 15,6 C 12,8 C 47 % 1020,8 hPa 0,0 l/m 2 min 0 min 307 W/m 3,2 km/h (1 Bft) 97,87 %
05.05.2020 18:56 16,3 C 15,6 C 12,8 C 47 % 1020,8 hPa 0,0 l/m 2 min 0 min 299 W/m 6,4 km/h (2 Bft) 97,87 %
05.05.2020 18:58 16,3 C 15,0 C 12,8 C 47 % 1020,8 hPa 0,0 l/m 2 min 0 min 293 W/m 12,9 km/h (3 Bft) 96,23 %
05.05.2020 19:00 16,2 C 14,4 C 12,8 C 48 % 1020,8 hPa 0,0 l/m 2 min 0 min 286 W/m 6,4 km/h (2 Bft) 98,00 %
05.05.2020 19:02 16,1 C 14,4 C 12,8 C 47 % 1020,8 hPa 0,0 l/m 2 min 0 min 279 W/m 12,9 km/h (3 Bft) 100,00 %
05.05.2020 19:04 16,0 C 13,9 C 12,8 C 47 % 1020,8 hPa 0,0 l/m 2 min 0 min 205 W/m 6,4 km/h (2 Bft) 100,00 %
05.05.2020 19:06 15,9 C 13,9 C 12,8 C 48 % 1020,8 hPa 0,0 l/m 0 min 0 min 85 W/m 6,4 km/h (2 Bft) 100,00 %
05.05.2020 19:08 15,8 C 13,9 C 12,2 C 49 % 1020,8 hPa 0,0 l/m 0 min 0 min 60 W/m 6,4 km/h (2 Bft) 98,11 %
05.05.2020 19:10 15,7 C 13,3 C 12,2 C 48 % 1020,8 hPa 0,0 l/m 0 min 0 min 58 W/m 12,9 km/h (3 Bft) 100,00 %
05.05.2020 19:12 15,6 C 13,3 C 12,2 C 48 % 1020,7 hPa 0,0 l/m 0 min 0 min 58 W/m 12,9 km/h (3 Bft) 97,87 %
05.05.2020 19:14 15,4 C 13,3 C 12,2 C 48 % 1020,8 hPa 0,0 l/m 0 min 0 min 56 W/m 6,4 km/h (2 Bft) 100,00 %
05.05.2020 19:16 15,3 C 13,3 C 12,2 C 49 % 1020,8 hPa 0,0 l/m 0 min 0 min 55 W/m 6,4 km/h (2 Bft) 97,37 %
05.05.2020 19:18 15,3 C 13,3 C 12,2 C 50 % 1020,8 hPa 0,0 l/m 0 min 0 min 54 W/m 6,4 km/h (2 Bft) 100,00 %
05.05.2020 19:20 15,2 C 13,3 C 12,2 C 49 % 1020,8 hPa 0,0 l/m 0 min 0 min 53 W/m 6,4 km/h (2 Bft) 98,11 %
05.05.2020 19:22 15,1 C 13,3 C 12,2 C 50 % 1020,8 hPa 0,0 l/m 0 min 0 min 53 W/m 3,2 km/h (1 Bft) 100,00 %
05.05.2020 19:24 15,0 C 13,3 C 12,2 C 50 % 1020,8 hPa 0,0 l/m 0 min 0 min 51 W/m 6,4 km/h (2 Bft) 100,00 %
05.05.2020 19:26 14,9 C 13,3 C 12,2 C 49 % 1020,8 hPa 0,0 l/m 0 min 0 min 49 W/m 9,7 km/h (2 Bft) 97,30 %
05.05.2020 19:28 14,8 C 12,8 C 12,2 C 50 % 1020,8 hPa 0,0 l/m 0 min 0 min 49 W/m 3,2 km/h (1 Bft) 97,87 %
05.05.2020 19:30 14,7 C 12,8 C 12,2 C 50 % 1020,7 hPa 0,0 l/m 0 min 0 min 47 W/m 0,0 km/h (0 Bft) 98,11 %
05.05.2020 19:32 14,6 C 13,3 C 12,2 C 50 % 1020,7 hPa 0,0 l/m 0 min 0 min 47 W/m 9,7 km/h (2 Bft) 98,00 %
05.05.2020 19:34 14,6 C 12,8 C 12,2 C 51 % 1020,8 hPa 0,0 l/m 0 min 0 min 46 W/m 6,4 km/h (2 Bft) 94,74 %
05.05.2020 19:36 14,5 C 12,8 C 12,2 C 51 % 1020,7 hPa 0,0 l/m 0 min 0 min 46 W/m 6,4 km/h (2 Bft) 97,87 %
05.05.2020 19:38 14,4 C 12,8 C 11,7 C 51 % 1020,8 hPa 0,0 l/m 0 min 0 min 44 W/m 6,4 km/h (2 Bft) 98,11 %
05.05.2020 19:40 14,3 C 12,8 C 11,7 C 51 % 1020,8 hPa 0,0 l/m 0 min 0 min 44 W/m 6,4 km/h (2 Bft) 97,83 %
05.05.2020 19:42 14,3 C 12,8 C 11,7 C 51 % 1020,8 hPa 0,0 l/m 0 min 0 min 43 W/m 12,9 km/h (3 Bft) 93,62 %
05.05.2020 19:44 14,3 C 12,8 C 11,7 C 51 % 1020,8 hPa 0,0 l/m 0 min 0 min 42 W/m 6,4 km/h (2 Bft) 92,00 %
05.05.2020 19:46 14,3 C 12,8 C 11,7 C 52 % 1020,8 hPa 0,0 l/m 0 min 0 min 40 W/m 3,2 km/h (1 Bft) 100,00 %
05.05.2020 19:48 14,2 C 12,8 C 11,7 C 52 % 1020,9 hPa 0,0 l/m 0 min 0 min 40 W/m 6,4 km/h (2 Bft) 97,83 %
05.05.2020 19:50 14,1 C 12,8 C 11,7 C 52 % 1020,9 hPa 0,0 l/m 0 min 0 min 39 W/m 3,2 km/h (1 Bft) 94,34 %
05.05.2020 19:52 14,1 C 12,8 C 11,7 C 52 % 1020,9 hPa 0,0 l/m 0 min 0 min 39 W/m 3,2 km/h (1 Bft) 96,00 %
05.05.2020 19:54 14,1 C 12,2 C 11,7 C 52 % 1020,9 hPa 0,0 l/m 0 min 0 min 38 W/m 6,4 km/h (2 Bft) 95,74 %
05.05.2020 19:56 14,0 C 12,2 C 11,7 C 52 % 1020,9 hPa 0,0 l/m 0 min 0 min 37 W/m 6,4 km/h (2 Bft) 94,74 %
05.05.2020 19:58 13,9 C 12,2 C 11,7 C 53 % 1020,9 hPa 0,0 l/m 0 min 0 min 37 W/m 0,0 km/h (0 Bft) 95,74 %
05.05.2020 20:00 13,9 C 12,2 C 11,7 C 53 % 1020,9 hPa 0,0 l/m 0 min 0 min 35 W/m 0,0 km/h (0 Bft) 95,65 %
05.05.2020 20:02 13,8 C 12,2 C 11,1 C 53 % 1020,9 hPa 0,0 l/m 0 min 0 min 35 W/m 0,0 km/h (0 Bft) 96,23 %
05.05.2020 20:04 13,8 C 12,2 C 11,1 C 53 % 1020,9 hPa 0,0 l/m 0 min 0 min 33 W/m 0,0 km/h (0 Bft) 96,00 %
05.05.2020 20:06 13,8 C 12,2 C 11,1 C 54 % 1020,9 hPa 0,0 l/m 0 min 0 min 33 W/m 0,0 km/h (0 Bft) 94,74 %
05.05.2020 20:08 13,7 C 12,2 C 11,1 C 54 % 1021,0 hPa 0,0 l/m 0 min 0 min 32 W/m 0,0 km/h (0 Bft) 95,74 %
05.05.2020 20:10 13,7 C 12,2 C 10,6 C 53 % 1020,9 hPa 0,0 l/m 0 min 0 min 32 W/m 0,0 km/h (0 Bft) 95,74 %
05.05.2020 20:12 13,7 C 12,2 C 10,6 C 53 % 1021,0 hPa 0,0 l/m 0 min 0 min 30 W/m 0,0 km/h (0 Bft) 93,48 %
05.05.2020 20:14 13,6 C 11,7 C 10,6 C 54 % 1021,0 hPa 0,0 l/m 0 min 0 min 28 W/m 3,2 km/h (1 Bft) 95,74 %
05.05.2020 20:16 13,6 C 11,7 C 10,6 C 54 % 1021,0 hPa 0,0 l/m 0 min 0 min 28 W/m 3,2 km/h (1 Bft) 95,74 %
05.05.2020 20:18 13,6 C 11,7 C 11,1 C 54 % 1021,0 hPa 0,0 l/m 0 min 0 min 26 W/m 3,2 km/h (1 Bft) 95,74 %
05.05.2020 20:20 13,4 C 11,7 C 11,1 C 53 % 1021,0 hPa 0,0 l/m 0 min 0 min 26 W/m 6,4 km/h (2 Bft) 95,74 %
05.05.2020 20:22 13,4 C 11,7 C 11,1 C 54 % 1021,0 hPa 0,0 l/m 0 min 0 min 25 W/m 0,0 km/h (0 Bft) 95,65 %
05.05.2020 20:24 13,4 C 11,7 C 10,6 C 54 % 1020,9 hPa 0,0 l/m 0 min 0 min 23 W/m 0,0 km/h (0 Bft) 95,74 %
05.05.2020 20:26 13,3 C 11,7 C 10,6 C 54 % 1021,0 hPa 0,0 l/m 0 min 0 min 21 W/m 3,2 km/h (1 Bft) 100,00 %
05.05.2020 20:28 13,3 C 11,7 C 10,6 C 54 % 1021,0 hPa 0,0 l/m 0 min 0 min 21 W/m 6,4 km/h (2 Bft) 97,87 %
05.05.2020 20:30 13,2 C 11,7 C 10,6 C 55 % 1021,0 hPa 0,0 l/m 0 min 0 min 19 W/m 3,2 km/h (1 Bft) 97,87 %
05.05.2020 20:32 13,2 C 11,7 C 10,6 C 54 % 1021,0 hPa 0,0 l/m 0 min 0 min 18 W/m 6,4 km/h (2 Bft) 100,00 %
05.05.2020 20:34 13,1 C 11,7 C 10,6 C 54 % 1021,0 hPa 0,0 l/m 0 min 0 min 18 W/m 3,2 km/h (1 Bft) 100,00 %
05.05.2020 20:36 13,1 C 11,7 C 10,6 C 55 % 1021,0 hPa 0,0 l/m 0 min 0 min 16 W/m 3,2 km/h (1 Bft) 100,00 %
05.05.2020 20:38 13,1 C 11,1 C 10,6 C 55 % 1021,0 hPa 0,0 l/m 0 min 0 min 16 W/m 3,2 km/h (1 Bft) 97,87 %
05.05.2020 20:40 13,0 C 11,1 C 10,6 C 54 % 1021,1 hPa 0,0 l/m 0 min 0 min 14 W/m 0,0 km/h (0 Bft) 100,00 %
05.05.2020 20:42 12,9 C 11,1 C 10,6 C 55 % 1021,1 hPa 0,0 l/m 0 min 0 min 14 W/m 0,0 km/h (0 Bft) 97,87 %
05.05.2020 20:44 12,9 C 11,1 C 10,6 C 56 % 1021,1 hPa 0,0 l/m 0 min 0 min 12 W/m 0,0 km/h (0 Bft) 100,00 %
05.05.2020 20:46 12,9 C 11,1 C 10,0 C 55 % 1021,1 hPa 0,0 l/m 0 min 0 min 12 W/m 0,0 km/h (0 Bft) 100,00 %
05.05.2020 20:48 12,8 C 10,6 C 10,0 C 56 % 1021,2 hPa 0,0 l/m 0 min 0 min 11 W/m 0,0 km/h (0 Bft) 97,83 %
05.05.2020 20:50 12,8 C 10,6 C 10,0 C 56 % 1021,1 hPa 0,0 l/m 0 min 0 min 11 W/m 0,0 km/h (0 Bft) 97,87 %
05.05.2020 20:52 12,8 C 10,6 C 10,0 C 56 % 1021,2 hPa 0,0 l/m 0 min 0 min 9 W/m 0,0 km/h (0 Bft) 100,00 %
05.05.2020 20:54 12,7 C 10,6 C 9,4 C 56 % 1021,2 hPa 0,0 l/m 0 min 0 min 9 W/m 0,0 km/h (0 Bft) 100,00 %
05.05.2020 20:56 12,7 C 10,6 C 9,4 C 56 % 1021,2 hPa 0,0 l/m 0 min 0 min 7 W/m 0,0 km/h (0 Bft) 100,00 %
05.05.2020 20:58 12,6 C 10,0 C 9,4 C 56 % 1021,3 hPa 0,0 l/m 0 min 0 min 7 W/m 0,0 km/h (0 Bft) 100,00 %
05.05.2020 21:00 12,6 C 10,0 C 9,4 C 56 % 1021,3 hPa 0,0 l/m 0 min 0 min 6 W/m 0,0 km/h (0 Bft) 100,00 %
05.05.2020 21:02 12,5 C 10,0 C 9,4 C 56 % 1021,3 hPa 0,0 l/m 0 min 0 min 5 W/m 0,0 km/h (0 Bft) 100,00 %
05.05.2020 21:04 12,5 C 10,0 C 8,9 C 57 % 1021,3 hPa 0,0 l/m 0 min 0 min 5 W/m 0,0 km/h (0 Bft) 100,00 %
05.05.2020 21:06 12,4 C 10,0 C 8,9 C 57 % 1021,3 hPa 0,0 l/m 0 min 0 min 1 W/m 0,0 km/h (0 Bft) 100,00 %
05.05.2020 21:08 12,3 C 9,4 C 8,9 C 57 % 1021,3 hPa 0,0 l/m 0 min 0 min 0 W/m 0,0 km/h (0 Bft) 100,00 %
05.05.2020 21:10 12,3 C 9,4 C 8,9 C 57 % 1021,3 hPa 0,0 l/m 0 min 0 min 0 W/m 0,0 km/h (0 Bft) 100,00 %
05.05.2020 21:12 12,3 C 9,4 C 8,9 C 58 % 1021,4 hPa 0,0 l/m 0 min 0 min 0 W/m 0,0 km/h (0 Bft) 100,00 %
05.05.2020 21:14 12,2 C 9,4 C 8,9 C 58 % 1021,4 hPa 0,0 l/m 0 min 0 min 0 W/m 0,0 km/h (0 Bft) 100,00 %
05.05.2020 21:16 12,1 C 9,4 C 8,9 C 58 % 1021,4 hPa 0,0 l/m 0 min 0 min 0 W/m 0,0 km/h (0 Bft) 97,87 %
05.05.2020 21:18 12,1 C 9,4 C 8,9 C 59 % 1021,4 hPa 0,0 l/m 0 min 0 min 0 W/m 0,0 km/h (0 Bft) 100,00 %
05.05.2020 21:20 12,0 C 9,4 C 8,3 C 59 % 1021,4 hPa 0,0 l/m 0 min 0 min 0 W/m 0,0 km/h (0 Bft) 100,00 %
05.05.2020 21:22 11,9 C 8,9 C 8,3 C 59 % 1021,4 hPa 0,0 l/m 0 min 0 min 0 W/m 0,0 km/h (0 Bft) 97,83 %
05.05.2020 21:24 11,9 C 8,9 C 8,3 C 59 % 1021,5 hPa 0,0 l/m 0 min 0 min 0 W/m 0,0 km/h (0 Bft) 97,87 %
05.05.2020 21:26 11,8 C 9,4 C 8,3 C 59 % 1021,5 hPa 0,0 l/m 0 min 0 min 0 W/m 3,2 km/h (1 Bft) 97,87 %
05.05.2020 21:28 11,7 C 9,4 C 8,3 C 60 % 1021,5 hPa 0,0 l/m 0 min 0 min 0 W/m 0,0 km/h (0 Bft) 97,87 %
05.05.2020 21:30 11,7 C 9,4 C 8,3 C 60 % 1021,6 hPa 0,0 l/m 0 min 0 min 0 W/m 0,0 km/h (0 Bft) 93,62 %
05.05.2020 21:32 11,6 C 9,4 C 8,3 C 60 % 1021,6 hPa 0,0 l/m 0 min 0 min 0 W/m 0,0 km/h (0 Bft) 95,74 %
05.05.2020 21:34 11,5 C 8,9 C 7,8 C 60 % 1021,6 hPa 0,0 l/m 0 min 0 min 0 W/m 0,0 km/h (0 Bft) 97,83 %
05.05.2020 21:36 11,4 C 8,9 C 7,8 C 60 % 1021,7 hPa 0,0 l/m 0 min 0 min 0 W/m 0,0 km/h (0 Bft) 97,87 %
05.05.2020 21:38 11,4 C 8,9 C 7,8 C 61 % 1021,7 hPa 0,0 l/m 0 min 0 min 0 W/m 0,0 km/h (0 Bft) 97,87 %
05.05.2020 21:40 11,3 C 8,9 C 7,8 C 61 % 1021,8 hPa 0,0 l/m 0 min 0 min 0 W/m 0,0 km/h (0 Bft) 95,74 %
05.05.2020 21:42 11,3 C 8,9 C 7,8 C 61 % 1021,7 hPa 0,0 l/m 0 min 0 min 0 W/m 0,0 km/h (0 Bft) 95,74 %
05.05.2020 21:44 11,2 C 8,3 C 7,8 C 61 % 1021,8 hPa 0,0 l/m 0 min 0 min 0 W/m 0,0 km/h (0 Bft) 95,74 %
05.05.2020 21:46 11,2 C 8,3 C 7,8 C 62 % 1021,8 hPa 0,0 l/m 0 min 0 min 0 W/m 0,0 km/h (0 Bft) 95,65 %
05.05.2020 21:48 11,1 C 8,3 C 7,8 C 62 % 1021,8 hPa 0,0 l/m 0 min 0 min 0 W/m 0,0 km/h (0 Bft) 93,62 %
05.05.2020 21:50 11,1 C 8,3 C 7,2 C 62 % 1021,9 hPa 0,0 l/m 0 min 0 min 0 W/m 0,0 km/h (0 Bft) 95,74 %
05.05.2020 21:52 10,9 C 8,3 C 7,2 C 62 % 1021,9 hPa 0,0 l/m 0 min 0 min 0 W/m 0,0 km/h (0 Bft) 95,74 %
05.05.2020 21:54 10,9 C 7,8 C 7,2 C 62 % 1021,9 hPa 0,0 l/m 0 min 0 min 0 W/m 0,0 km/h (0 Bft) 95,74 %
05.05.2020 21:56 10,8 C 7,8 C 7,2 C 62 % 1021,9 hPa 0,0 l/m 0 min 0 min 0 W/m 0,0 km/h (0 Bft) 93,62 %
05.05.2020 21:58 10,8 C 7,8 C 7,2 C 62 % 1021,9 hPa 0,0 l/m 0 min 0 min 0 W/m 0,0 km/h (0 Bft) 93,48 %
05.05.2020 22:00 10,7 C 7,8 C 7,2 C 62 % 1022,0 hPa 0,0 l/m 0 min 0 min 0 W/m 0,0 km/h (0 Bft) 95,74 %
05.05.2020 22:02 10,7 C 7,8 C 7,2 C 62 % 1021,9 hPa 0,0 l/m 0 min 0 min 0 W/m 0,0 km/h (0 Bft) 95,74 %
05.05.2020 22:04 10,6 C 7,8 C 6,7 C 63 % 1022,0 hPa 0,0 l/m 0 min 0 min 0 W/m 0,0 km/h (0 Bft) 93,62 %
05.05.2020 22:06 10,6 C 7,8 C 6,7 C 63 % 1022,0 hPa 0,0 l/m 0 min 0 min 0 W/m 0,0 km/h (0 Bft) 95,74 %
05.05.2020 22:08 10,5 C 7,8 C 6,7 C 64 % 1022,1 hPa 0,0 l/m 0 min 0 min 0 W/m 0,0 km/h (0 Bft) 97,87 %
05.05.2020 22:10 10,4 C 7,8 C 6,7 C 64 % 1022,1 hPa 0,0 l/m 0 min 0 min 0 W/m 0,0 km/h (0 Bft) 97,83 %
05.05.2020 22:12 10,3 C 7,2 C 6,7 C 64 % 1022,1 hPa 0,0 l/m 0 min 0 min 0 W/m 0,0 km/h (0 Bft) 97,87 %
05.05.2020 22:14 10,3 C 7,2 C 6,7 C 65 % 1022,1 hPa 0,0 l/m 0 min 0 min 0 W/m 0,0 km/h (0 Bft) 97,87 %
05.05.2020 22:16 10,2 C 7,2 C 6,7 C 65 % 1022,2 hPa 0,0 l/m 0 min 0 min 0 W/m 0,0 km/h (0 Bft) 97,87 %
05.05.2020 22:18 10,1 C 7,2 C 6,7 C 65 % 1022,2 hPa 0,0 l/m 0 min 0 min 0 W/m 0,0 km/h (0 Bft) 97,87 %
05.05.2020 22:20 10,1 C 7,2 C 6,1 C 65 % 1022,2 hPa 0,0 l/m 0 min 0 min 0 W/m 0,0 km/h (0 Bft) 97,87 %
05.05.2020 22:22 10,0 C 7,2 C 6,1 C 66 % 1022,3 hPa 0,0 l/m 0 min 0 min 0 W/m 0,0 km/h (0 Bft) 95,65 %
05.05.2020 22:24 9,9 C 7,2 C 6,1 C 66 % 1022,3 hPa 0,0 l/m 0 min 0 min 0 W/m 0,0 km/h (0 Bft) 97,87 %
05.05.2020 22:26 9,9 C 7,2 C 6,1 C 66 % 1022,3 hPa 0,0 l/m 0 min 0 min 0 W/m 0,0 km/h (0 Bft) 95,74 %
05.05.2020 22:28 9,8 C 7,2 C 6,1 C 66 % 1022,3 hPa 0,0 l/m 0 min 0 min 0 W/m 0,0 km/h (0 Bft) 97,87 %
05.05.2020 22:30 9,8 C 7,2 C 6,1 C 66 % 1022,4 hPa 0,0 l/m 0 min 0 min 0 W/m 0,0 km/h (0 Bft) 97,87 %
05.05.2020 22:32 9,7 C 7,2 C 6,1 C 66 % 1022,4 hPa 0,0 l/m 0 min 0 min 0 W/m 0,0 km/h (0 Bft) 97,87 %
05.05.2020 22:34 9,7 C 7,2 C 6,1 C 67 % 1022,4 hPa 0,0 l/m 0 min 0 min 0 W/m 0,0 km/h (0 Bft) 97,83 %
05.05.2020 22:36 9,6 C 7,2 C 6,1 C 67 % 1022,4 hPa 0,0 l/m 0 min 0 min 0 W/m 0,0 km/h (0 Bft) 97,87 %
05.05.2020 22:38 9,6 C 6,7 C 6,1 C 67 % 1022,5 hPa 0,0 l/m 0 min 0 min 0 W/m 0,0 km/h (0 Bft) 100,00 %
05.05.2020 22:40 9,4 C 6,7 C 6,1 C 68 % 1022,5 hPa 0,0 l/m 0 min 0 min 0 W/m 0,0 km/h (0 Bft) 97,87 %
05.05.2020 22:42 9,4 C 6,7 C 6,1 C 68 % 1022,5 hPa 0,0 l/m 0 min 0 min 0 W/m 0,0 km/h (0 Bft) 97,87 %
05.05.2020 22:44 9,3 C 6,7 C 6,1 C 68 % 1022,5 hPa 0,0 l/m 0 min 0 min 0 W/m 0,0 km/h (0 Bft) 100,00 %
05.05.2020 22:46 9,3 C 6,7 C 5,6 C 68 % 1022,6 hPa 0,0 l/m 0 min 0 min 0 W/m 0,0 km/h (0 Bft) 100,00 %
05.05.2020 22:48 9,2 C 6,7 C 5,6 C 68 % 1022,7 hPa 0,0 l/m 0 min 0 min 0 W/m 0,0 km/h (0 Bft) 100,00 %
05.05.2020 22:50 9,2 C 6,1 C 5,6 C 69 % 1022,7 hPa 0,0 l/m 0 min 0 min 0 W/m 0,0 km/h (0 Bft) 100,00 %
05.05.2020 22:52 9,1 C 6,1 C 5,6 C 69 % 1022,7 hPa 0,0 l/m 0 min 0 min 0 W/m 0,0 km/h (0 Bft) 97,87 %
05.05.2020 22:54 9,1 C 6,1 C 5,6 C 69 % 1022,7 hPa 0,0 l/m 0 min 0 min 0 W/m 0,0 km/h (0 Bft) 100,00 %
05.05.2020 22:56 9,0 C 6,7 C 5,6 C 69 % 1022,7 hPa 0,0 l/m 0 min 0 min 0 W/m 0,0 km/h (0 Bft) 100,00 %
05.05.2020 22:58 8,9 C 6,7 C 5,6 C 69 % 1022,7 hPa 0,0 l/m 0 min 0 min 0 W/m 0,0 km/h (0 Bft) 100,00 %
05.05.2020 23:00 8,9 C 6,7 C 5,6 C 69 % 1022,8 hPa 0,0 l/m 0 min 0 min 0 W/m 0,0 km/h (0 Bft) 100,00 %
05.05.2020 23:02 8,8 C 6,7 C 5,6 C 69 % 1022,7 hPa 0,0 l/m 0 min 0 min 0 W/m 0,0 km/h (0 Bft) 100,00 %
05.05.2020 23:04 8,8 C 6,7 C 5,6 C 69 % 1022,7 hPa 0,0 l/m 0 min 0 min 0 W/m 0,0 km/h (0 Bft) 100,00 %
05.05.2020 23:06 8,8 C 6,7 C 5,6 C 69 % 1022,7 hPa 0,0 l/m 0 min 0 min 0 W/m 0,0 km/h (0 Bft) 97,87 %
05.05.2020 23:08 8,7 C 6,1 C 5,6 C 70 % 1022,7 hPa 0,0 l/m 0 min 0 min 0 W/m 0,0 km/h (0 Bft) 97,83 %
05.05.2020 23:10 8,7 C 6,1 C 5,6 C 70 % 1022,7 hPa 0,0 l/m 0 min 0 min 0 W/m 0,0 km/h (0 Bft) 97,87 %
05.05.2020 23:12 8,6 C 6,1 C 5,6 C 70 % 1022,8 hPa 0,0 l/m 0 min 0 min 0 W/m 0,0 km/h (0 Bft) 95,74 %
05.05.2020 23:14 8,6 C 6,1 C 5,6 C 70 % 1022,8 hPa 0,0 l/m 0 min 0 min 0 W/m 0,0 km/h (0 Bft) 97,87 %
05.05.2020 23:16 8,5 C 6,1 C 5,6 C 70 % 1022,8 hPa 0,0 l/m 0 min 0 min 0 W/m 0,0 km/h (0 Bft) 97,87 %
05.05.2020 23:18 8,4 C 6,1 C 5,6 C 70 % 1022,8 hPa 0,0 l/m 0 min 0 min 0 W/m 0,0 km/h (0 Bft) 97,87 %
05.05.2020 23:20 8,4 C 6,1 C 5,0 C 70 % 1022,8 hPa 0,0 l/m 0 min 0 min 0 W/m 0,0 km/h (0 Bft) 97,83 %
05.05.2020 23:22 8,3 C 6,1 C 5,0 C 70 % 1022,9 hPa 0,0 l/m 0 min 0 min 0 W/m 0,0 km/h (0 Bft) 95,74 %
05.05.2020 23:24 8,3 C 6,1 C 5,0 C 70 % 1022,9 hPa 0,0 l/m 0 min 0 min 0 W/m 0,0 km/h (0 Bft) 95,74 %
05.05.2020 23:26 8,3 C 6,1 C 5,0 C 71 % 1022,9 hPa 0,0 l/m 0 min 0 min 0 W/m 0,0 km/h (0 Bft) 97,87 %
05.05.2020 23:28 8,2 C 5,6 C 5,0 C 71 % 1023,0 hPa 0,0 l/m 0 min 0 min 0 W/m 0,0 km/h (0 Bft) 95,74 %
05.05.2020 23:30 8,2 C 6,1 C 5,0 C 71 % 1023,0 hPa 0,0 l/m 0 min 0 min 0 W/m 0,0 km/h (0 Bft) 97,87 %
05.05.2020 23:32 8,1 C 6,1 C 5,0 C 70 % 1023,0 hPa 0,0 l/m 0 min 0 min 0 W/m 0,0 km/h (0 Bft) 97,83 %
05.05.2020 23:34 8,1 C 6,1 C 5,0 C 71 % 1023,0 hPa 0,0 l/m 0 min 0 min 0 W/m 0,0 km/h (0 Bft) 97,87 %
05.05.2020 23:36 8,0 C 6,1 C 5,0 C 71 % 1023,0 hPa 0,0 l/m 0 min 0 min 0 W/m 0,0 km/h (0 Bft) 97,87 %
05.05.2020 23:38 7,9 C 6,7 C 5,0 C 71 % 1023,0 hPa 0,0 l/m 0 min 0 min 0 W/m 0,0 km/h (0 Bft) 95,74 %
05.05.2020 23:40 7,9 C 6,7 C 5,0 C 71 % 1023,1 hPa 0,0 l/m 0 min 0 min 0 W/m 0,0 km/h (0 Bft) 100,00 %
05.05.2020 23:42 7,9 C 6,7 C 5,6 C 71 % 1023,1 hPa 0,0 l/m 0 min 0 min 0 W/m 0,0 km/h (0 Bft) 100,00 %
05.05.2020 23:44 7,8 C 6,7 C 5,6 C 71 % 1023,2 hPa 0,0 l/m 0 min 0 min 0 W/m 0,0 km/h (0 Bft) 97,87 %
05.05.2020 23:46 7,8 C 6,7 C 5,0 C 71 % 1023,1 hPa 0,0 l/m 0 min 0 min 0 W/m 0,0 km/h (0 Bft) 100,00 %
05.05.2020 23:48 7,8 C 6,7 C 5,0 C 71 % 1023,1 hPa 0,0 l/m 0 min 0 min 0 W/m 0,0 km/h (0 Bft) 97,87 %
05.05.2020 23:50 7,7 C 6,1 C 5,0 C 72 % 1023,2 hPa 0,0 l/m 0 min 0 min 0 W/m 0,0 km/h (0 Bft) 100,00 %
05.05.2020 23:52 7,7 C 6,1 C 5,0 C 72 % 1023,2 hPa 0,0 l/m 0 min 0 min 0 W/m 0,0 km/h (0 Bft) 100,00 %
05.05.2020 23:54 7,7 C 6,1 C 5,0 C 72 % 1023,2 hPa 0,0 l/m 0 min 0 min 0 W/m 0,0 km/h (0 Bft) 100,00 %
05.05.2020 23:56 7,7 C 6,1 C 5,0 C 72 % 1023,2 hPa 0,0 l/m 0 min 0 min 0 W/m 0,0 km/h (0 Bft) 97,87 %
05.05.2020 23:58 7,6 C 6,1 C 5,0 C 72 % 1023,3 hPa 0,0 l/m 0 min 0 min 0 W/m 0,0 km/h (0 Bft) 100,00 %
_ Min-Zeit 06:12 05:42 05:46 15:18 19:12 - - - - 00:02 00:10
Minimum _ 5,1 C 3,9 C 3,3 C 42 % 1020,7 hPa - - - - 0,0 km/h (0 Bft) 54,55 %
_ Max-Zeit 16:56 13:10 13:38 07:06 23:58 00:00 12:08 00:00 13:30 08:32 01:18
Maximum _ 17,9 C 23,3 C 28,3 C 90 % 1023,3 hPa 0,0 l/m 4 min 0 min 968 W/m 22,5 km/h
NW (4 Bft)
100,00 %
Durchschnitt _ 11,4 C 12,4 C 11,5 C 66 % 1021,5 hPa #0,0 l/m #10:36 h #0 min. 504 W/m 4,9 km/h (1 Bft) 97,24 %
© 2020 W. Hausmann